﻿<?xml version="1.0" encoding="utf-8"?><gpx creator="Garmin Desktop App" version="1.1" xsi:schemaLocation="http://www.topografix.com/GPX/1/1 http://www.topografix.com/GPX/1/1/gpx.xsd http://www.garmin.com/xmlschemas/WaypointExtension/v1 http://www8.garmin.com/xmlschemas/WaypointExtensionv1.xsd http://www.garmin.com/xmlschemas/TrackPointExtension/v1 http://www.garmin.com/xmlschemas/TrackPointExtensionv1.xsd http://www.garmin.com/xmlschemas/GpxExtensions/v3 http://www8.garmin.com/xmlschemas/GpxExtensionsv3.xsd http://www.garmin.com/xmlschemas/ActivityExtension/v1 http://www8.garmin.com/xmlschemas/ActivityExtensionv1.xsd http://www.garmin.com/xmlschemas/AdventuresExtensions/v1 http://www8.garmin.com/xmlschemas/AdventuresExtensionv1.xsd http://www.garmin.com/xmlschemas/PressureExtension/v1 http://www.garmin.com/xmlschemas/PressureExtensionv1.xsd http://www.garmin.com/xmlschemas/TripExtensions/v1 http://www.garmin.com/xmlschemas/TripExtensionsv1.xsd http://www.garmin.com/xmlschemas/TripMetaDataExtensions/v1 http://www.garmin.com/xmlschemas/TripMetaDataExtensionsv1.xsd http://www.garmin.com/xmlschemas/ViaPointTransportationModeExtensions/v1 http://www.garmin.com/xmlschemas/ViaPointTransportationModeExtensionsv1.xsd http://www.garmin.com/xmlschemas/CreationTimeExtension/v1 http://www.garmin.com/xmlschemas/CreationTimeExtensionsv1.xsd http://www.garmin.com/xmlschemas/AccelerationExtension/v1 http://www.garmin.com/xmlschemas/AccelerationExtensionv1.xsd http://www.garmin.com/xmlschemas/PowerExtension/v1 http://www.garmin.com/xmlschemas/PowerExtensionv1.xsd http://www.garmin.com/xmlschemas/VideoExtension/v1 http://www.garmin.com/xmlschemas/VideoExtensionv1.xsd" xmlns="http://www.topografix.com/GPX/1/1" xmlns:xsi="http://www.w3.org/2001/XMLSchema-instance" xmlns:wptx1="http://www.garmin.com/xmlschemas/WaypointExtension/v1" xmlns:gpxtrx="http://www.garmin.com/xmlschemas/GpxExtensions/v3" xmlns:gpxtpx="http://www.garmin.com/xmlschemas/TrackPointExtension/v1" xmlns:gpxx="http://www.garmin.com/xmlschemas/GpxExtensions/v3" xmlns:trp="http://www.garmin.com/xmlschemas/TripExtensions/v1" xmlns:adv="http://www.garmin.com/xmlschemas/AdventuresExtensions/v1" xmlns:prs="http://www.garmin.com/xmlschemas/PressureExtension/v1" xmlns:tmd="http://www.garmin.com/xmlschemas/TripMetaDataExtensions/v1" xmlns:vptm="http://www.garmin.com/xmlschemas/ViaPointTransportationModeExtensions/v1" xmlns:ctx="http://www.garmin.com/xmlschemas/CreationTimeExtension/v1" xmlns:gpxacc="http://www.garmin.com/xmlschemas/AccelerationExtension/v1" xmlns:gpxpx="http://www.garmin.com/xmlschemas/PowerExtension/v1" xmlns:vidx1="http://www.garmin.com/xmlschemas/VideoExtension/v1">

  <metadata>
    <link href="http://www.garmin.com">
      <text>Garmin International</text>
    </link>
    <time>2021-10-12T09:21:38Z</time>
    <bounds maxlat="50.328227486461401" maxlon="6.39314484782517" minlat="50.301504554226995" minlon="6.342889554798603" />
  </metadata>

  <trk>
    <name>riveval lus noord via bie reter 14 km</name>
    <extensions>
      <gpxx:TrackExtension>
        <gpxx:DisplayColor>Red</gpxx:DisplayColor>
      </gpxx:TrackExtension>
    </extensions>
    <trkseg>
      <trkpt lat="50.319505026564002" lon="6.356561696156859">
        <ele>529.15999999999997</ele>
        <time>2020-08-14T11:52:08Z</time>
      </trkpt>
      <trkpt lat="50.319514330476522" lon="6.356587177142501">
        <ele>529.16999999999996</ele>
        <time>2020-08-14T11:52:14Z</time>
      </trkpt>
      <trkpt lat="50.31953327357769" lon="6.356559097766876">
        <ele>529.16999999999996</ele>
        <time>2020-08-14T11:52:17Z</time>
      </trkpt>
      <trkpt lat="50.319539476186037" lon="6.356551889330149">
        <ele>529.34000000000003</ele>
        <time>2020-08-14T11:54:11Z</time>
      </trkpt>
      <trkpt lat="50.319489603862166" lon="6.356562450528145">
        <ele>529.34000000000003</ele>
        <time>2020-08-14T11:54:15Z</time>
      </trkpt>
      <trkpt lat="50.319509888067842" lon="6.356593044474721">
        <ele>529.32000000000005</ele>
        <time>2020-08-14T11:54:27Z</time>
      </trkpt>
      <trkpt lat="50.31950200907886" lon="6.356595642864704">
        <ele>529.30999999999995</ele>
        <time>2020-08-14T11:54:46Z</time>
      </trkpt>
      <trkpt lat="50.319502344354987" lon="6.356663787737489">
        <ele>529.32000000000005</ele>
        <time>2020-08-14T11:54:50Z</time>
      </trkpt>
      <trkpt lat="50.319568561390042" lon="6.35678842663765">
        <ele>530.12</ele>
        <time>2020-08-14T11:54:58Z</time>
      </trkpt>
      <trkpt lat="50.3195880074054" lon="6.356739811599255">
        <ele>530.10000000000002</ele>
        <time>2020-08-14T11:55:04Z</time>
      </trkpt>
      <trkpt lat="50.319587085396051" lon="6.356767807155848">
        <ele>530.11000000000001</ele>
        <time>2020-08-14T11:55:08Z</time>
      </trkpt>
      <trkpt lat="50.319608543068171" lon="6.356759089976549">
        <ele>530.11000000000001</ele>
        <time>2020-08-14T11:55:18Z</time>
      </trkpt>
      <trkpt lat="50.319595634937286" lon="6.356735955923796">
        <ele>530.15999999999997</ele>
        <time>2020-08-14T11:55:29Z</time>
      </trkpt>
      <trkpt lat="50.319584487006068" lon="6.356754060834646">
        <ele>530.20000000000005</ele>
        <time>2020-08-14T11:55:31Z</time>
      </trkpt>
      <trkpt lat="50.319595467299223" lon="6.356778619810939">
        <ele>530.20000000000005</ele>
        <time>2020-08-14T11:55:34Z</time>
      </trkpt>
      <trkpt lat="50.319609632715583" lon="6.356756575405598">
        <ele>530.21000000000004</ele>
        <time>2020-08-14T11:55:37Z</time>
      </trkpt>
      <trkpt lat="50.319579122588038" lon="6.356778871268034">
        <ele>530.23000000000002</ele>
        <time>2020-08-14T11:55:41Z</time>
      </trkpt>
      <trkpt lat="50.31965053640306" lon="6.357028735801578">
        <ele>531.01999999999998</ele>
        <time>2020-08-14T11:55:56Z</time>
      </trkpt>
      <trkpt lat="50.319669479504228" lon="6.35709235444665">
        <ele>531.80999999999995</ele>
        <time>2020-08-14T11:55:59Z</time>
      </trkpt>
      <trkpt lat="50.319727314636111" lon="6.357446741312742">
        <ele>531.85000000000002</ele>
        <time>2020-08-14T11:56:15Z</time>
      </trkpt>
      <trkpt lat="50.319796968251467" lon="6.357787381857634">
        <ele>532.83000000000004</ele>
        <time>2020-08-14T11:56:32Z</time>
      </trkpt>
      <trkpt lat="50.319905932992697" lon="6.357798110693693">
        <ele>534.15999999999997</ele>
        <time>2020-08-14T11:56:40Z</time>
      </trkpt>
      <trkpt lat="50.320098465308547" lon="6.357582528144121">
        <ele>534.13</ele>
        <time>2020-08-14T11:56:58Z</time>
      </trkpt>
      <trkpt lat="50.320142554119229" lon="6.357517652213574">
        <ele>531.90999999999997</ele>
        <time>2020-08-14T11:57:03Z</time>
      </trkpt>
      <trkpt lat="50.320217991247773" lon="6.357458559796214">
        <ele>531.95000000000005</ele>
        <time>2020-08-14T11:57:14Z</time>
      </trkpt>
      <trkpt lat="50.320249004289508" lon="6.357448836788535">
        <ele>531.96000000000004</ele>
        <time>2020-08-14T11:57:17Z</time>
      </trkpt>
      <trkpt lat="50.320296697318554" lon="6.35743785649538">
        <ele>531.07000000000005</ele>
        <time>2020-08-14T11:57:21Z</time>
      </trkpt>
      <trkpt lat="50.320422928780317" lon="6.357298633083701">
        <ele>528.75</ele>
        <time>2020-08-14T11:57:37Z</time>
      </trkpt>
      <trkpt lat="50.32044698484242" lon="6.357284802943468">
        <ele>528.76999999999998</ele>
        <time>2020-08-14T11:57:39Z</time>
      </trkpt>
      <trkpt lat="50.320602217689157" lon="6.357173658907414">
        <ele>527.82000000000005</ele>
        <time>2020-08-14T11:57:50Z</time>
      </trkpt>
      <trkpt lat="50.320618478581309" lon="6.357148764654994">
        <ele>527.83000000000004</ele>
        <time>2020-08-14T11:57:52Z</time>
      </trkpt>
      <trkpt lat="50.320638595148921" lon="6.357055641710758">
        <ele>527</ele>
        <time>2020-08-14T11:57:58Z</time>
      </trkpt>
      <trkpt lat="50.320703219622374" lon="6.356889177113771">
        <ele>526.10000000000002</ele>
        <time>2020-08-14T11:58:12Z</time>
      </trkpt>
      <trkpt lat="50.320725683122873" lon="6.356781050562859">
        <ele>525.35000000000002</ele>
        <time>2020-08-14T11:58:19Z</time>
      </trkpt>
      <trkpt lat="50.320771867409348" lon="6.356491958722472">
        <ele>523.50999999999999</ele>
        <time>2020-08-14T11:58:37Z</time>
      </trkpt>
      <trkpt lat="50.320761390030384" lon="6.356157688423991">
        <ele>521.69000000000005</ele>
        <time>2020-08-14T11:58:53Z</time>
      </trkpt>
      <trkpt lat="50.320754433050752" lon="6.356108570471406">
        <ele>520.89999999999998</ele>
        <time>2020-08-14T11:58:55Z</time>
      </trkpt>
      <trkpt lat="50.320823416113853" lon="6.355729205533862">
        <ele>519.15999999999997</ele>
        <time>2020-08-14T11:59:10Z</time>
      </trkpt>
      <trkpt lat="50.320968423038721" lon="6.355471881106496">
        <ele>515.71000000000004</ele>
        <time>2020-08-14T11:59:26Z</time>
      </trkpt>
      <trkpt lat="50.321134468540549" lon="6.355329975485802">
        <ele>513.98000000000002</ele>
        <time>2020-08-14T11:59:42Z</time>
      </trkpt>
      <trkpt lat="50.321317864581943" lon="6.35522729717195">
        <ele>512.40999999999997</ele>
        <time>2020-08-14T11:59:59Z</time>
      </trkpt>
      <trkpt lat="50.32154300250113" lon="6.355093941092491">
        <ele>510.75999999999999</ele>
        <time>2020-08-14T12:00:16Z</time>
      </trkpt>
      <trkpt lat="50.321642244234681" lon="6.355035519227386">
        <ele>510.75999999999999</ele>
        <time>2020-08-14T12:00:27Z</time>
      </trkpt>
      <trkpt lat="50.321841482073069" lon="6.354849524796009">
        <ele>509.98000000000002</ele>
        <time>2020-08-14T12:00:45Z</time>
      </trkpt>
      <trkpt lat="50.322041558101773" lon="6.35467023588717">
        <ele>508.42000000000002</ele>
        <time>2020-08-14T12:01:01Z</time>
      </trkpt>
      <trkpt lat="50.322284381836653" lon="6.354424562305212">
        <ele>508.47000000000003</ele>
        <time>2020-08-14T12:01:21Z</time>
      </trkpt>
      <trkpt lat="50.322487726807594" lon="6.354256756603718">
        <ele>507.73000000000002</ele>
        <time>2020-08-14T12:01:36Z</time>
      </trkpt>
      <trkpt lat="50.322699286043644" lon="6.354122897610068">
        <ele>506.13999999999999</ele>
        <time>2020-08-14T12:01:51Z</time>
      </trkpt>
      <trkpt lat="50.322938002645969" lon="6.353981830179691">
        <ele>505.19</ele>
        <time>2020-08-14T12:02:09Z</time>
      </trkpt>
      <trkpt lat="50.323195913806558" lon="6.353894826024771">
        <ele>502.64999999999998</ele>
        <time>2020-08-14T12:02:25Z</time>
      </trkpt>
      <trkpt lat="50.323213767260313" lon="6.353891808539629">
        <ele>502.64999999999998</ele>
        <time>2020-08-14T12:02:26Z</time>
      </trkpt>
      <trkpt lat="50.323435552418232" lon="6.353850150480866">
        <ele>502.63</ele>
        <time>2020-08-14T12:02:42Z</time>
      </trkpt>
      <trkpt lat="50.323616433888674" lon="6.353743616491556">
        <ele>499.22000000000003</ele>
        <time>2020-08-14T12:02:55Z</time>
      </trkpt>
      <trkpt lat="50.323802176862955" lon="6.353624006733298">
        <ele>497.43000000000001</ele>
        <time>2020-08-14T12:03:11Z</time>
      </trkpt>
      <trkpt lat="50.323847690597177" lon="6.353609170764685">
        <ele>496.01999999999998</ele>
        <time>2020-08-14T12:03:15Z</time>
      </trkpt>
      <trkpt lat="50.324093447998166" lon="6.353720566257834">
        <ele>493.12</ele>
        <time>2020-08-14T12:03:33Z</time>
      </trkpt>
      <trkpt lat="50.324264019727707" lon="6.353840678930283">
        <ele>491.50999999999999</ele>
        <time>2020-08-14T12:03:47Z</time>
      </trkpt>
      <trkpt lat="50.324414055794477" lon="6.353899436071515">
        <ele>490.64999999999998</ele>
        <time>2020-08-14T12:03:57Z</time>
      </trkpt>
      <trkpt lat="50.324632907286286" lon="6.354026170447469">
        <ele>489.00999999999999</ele>
        <time>2020-08-14T12:04:13Z</time>
      </trkpt>
      <trkpt lat="50.32484270632267" lon="6.354125579819083">
        <ele>487.04000000000002</ele>
        <time>2020-08-14T12:04:29Z</time>
      </trkpt>
      <trkpt lat="50.324921999126673" lon="6.354189617559314">
        <ele>485.31</ele>
        <time>2020-08-14T12:04:36Z</time>
      </trkpt>
      <trkpt lat="50.325102461501956" lon="6.354367649182677">
        <ele>484.08999999999997</ele>
        <time>2020-08-14T12:04:51Z</time>
      </trkpt>
      <trkpt lat="50.325209833681583" lon="6.354477033019066">
        <ele>483.12</ele>
        <time>2020-08-14T12:05:00Z</time>
      </trkpt>
      <trkpt lat="50.325387613847852" lon="6.354540819302201">
        <ele>480.31999999999999</ele>
        <time>2020-08-14T12:05:13Z</time>
      </trkpt>
      <trkpt lat="50.325620714575052" lon="6.354630002751946">
        <ele>477.64999999999998</ele>
        <time>2020-08-14T12:05:28Z</time>
      </trkpt>
      <trkpt lat="50.325837135314941" lon="6.354752965271473">
        <ele>475.81</ele>
        <time>2020-08-14T12:05:42Z</time>
      </trkpt>
      <trkpt lat="50.325867645442486" lon="6.354756401851773">
        <ele>474.58999999999997</ele>
        <time>2020-08-14T12:05:44Z</time>
      </trkpt>
      <trkpt lat="50.32610485330224" lon="6.354736285284162">
        <ele>473.56</ele>
        <time>2020-08-14T12:06:00Z</time>
      </trkpt>
      <trkpt lat="50.326119689270854" lon="6.354738464578986">
        <ele>473.54000000000002</ele>
        <time>2020-08-14T12:06:01Z</time>
      </trkpt>
      <trkpt lat="50.326333092525601" lon="6.354691777378321">
        <ele>473.5</ele>
        <time>2020-08-14T12:06:16Z</time>
      </trkpt>
      <trkpt lat="50.326489247381687" lon="6.354789761826396">
        <ele>475.94</ele>
        <time>2020-08-14T12:06:27Z</time>
      </trkpt>
      <trkpt lat="50.326694520190358" lon="6.354963183403015">
        <ele>476.72000000000003</ele>
        <time>2020-08-14T12:06:42Z</time>
      </trkpt>
      <trkpt lat="50.326905157417059" lon="6.355109363794327">
        <ele>477.57999999999998</ele>
        <time>2020-08-14T12:06:55Z</time>
      </trkpt>
      <trkpt lat="50.326941786333919" lon="6.355133336037397">
        <ele>477.56999999999999</ele>
        <time>2020-08-14T12:06:58Z</time>
      </trkpt>
      <trkpt lat="50.326971625909209" lon="6.355181448161602">
        <ele>478.5</ele>
        <time>2020-08-14T12:07:01Z</time>
      </trkpt>
      <trkpt lat="50.326931895688176" lon="6.355240792036057">
        <ele>479.25</ele>
        <time>2020-08-14T12:07:06Z</time>
      </trkpt>
      <trkpt lat="50.326956203207374" lon="6.355461571365595">
        <ele>482.11000000000001</ele>
        <time>2020-08-14T12:07:15Z</time>
      </trkpt>
      <trkpt lat="50.326963998377323" lon="6.355489902198315">
        <ele>483.05000000000001</ele>
        <time>2020-08-14T12:07:16Z</time>
      </trkpt>
      <trkpt lat="50.327099617570639" lon="6.355777066200972">
        <ele>487.56999999999999</ele>
        <time>2020-08-14T12:07:27Z</time>
      </trkpt>
      <trkpt lat="50.327115291729569" lon="6.355806821957231">
        <ele>487.56</ele>
        <time>2020-08-14T12:07:28Z</time>
      </trkpt>
      <trkpt lat="50.327127445489168" lon="6.355840852484107">
        <ele>487.56</ele>
        <time>2020-08-14T12:07:29Z</time>
      </trkpt>
      <trkpt lat="50.32713633030653" lon="6.355878235772252">
        <ele>487.55000000000001</ele>
        <time>2020-08-14T12:07:30Z</time>
      </trkpt>
      <trkpt lat="50.327151585370302" lon="6.355913858860731">
        <ele>488.45999999999998</ele>
        <time>2020-08-14T12:07:31Z</time>
      </trkpt>
      <trkpt lat="50.327174300327897" lon="6.355955684557557">
        <ele>488.44</ele>
        <time>2020-08-14T12:07:32Z</time>
      </trkpt>
      <trkpt lat="50.327193075791001" lon="6.355982841923833">
        <ele>489.23000000000002</ele>
        <time>2020-08-14T12:07:33Z</time>
      </trkpt>
      <trkpt lat="50.327203469350934" lon="6.35601201094687">
        <ele>489.19</ele>
        <time>2020-08-14T12:07:34Z</time>
      </trkpt>
      <trkpt lat="50.327336573973298" lon="6.356253325939179">
        <ele>492.63999999999999</ele>
        <time>2020-08-14T12:07:41Z</time>
      </trkpt>
      <trkpt lat="50.327486777678132" lon="6.356596648693085">
        <ele>495.70999999999998</ele>
        <time>2020-08-14T12:07:49Z</time>
      </trkpt>
      <trkpt lat="50.327542098239064" lon="6.356712318956852">
        <ele>497.25</ele>
        <time>2020-08-14T12:07:52Z</time>
      </trkpt>
      <trkpt lat="50.327569004148245" lon="6.356814410537481">
        <ele>498.87</ele>
        <time>2020-08-14T12:07:55Z</time>
      </trkpt>
      <trkpt lat="50.327562717720866" lon="6.356847435235977">
        <ele>499.88</ele>
        <time>2020-08-14T12:07:56Z</time>
      </trkpt>
      <trkpt lat="50.327504798769951" lon="6.357152704149485">
        <ele>502.79000000000002</ele>
        <time>2020-08-14T12:08:04Z</time>
      </trkpt>
      <trkpt lat="50.327493399381638" lon="6.357186231762171">
        <ele>504.17000000000002</ele>
        <time>2020-08-14T12:08:05Z</time>
      </trkpt>
      <trkpt lat="50.327476551756263" lon="6.357225542888045">
        <ele>504.16000000000003</ele>
        <time>2020-08-14T12:08:06Z</time>
      </trkpt>
      <trkpt lat="50.327458782121539" lon="6.357278348878026">
        <ele>505.17000000000002</ele>
        <time>2020-08-14T12:08:07Z</time>
      </trkpt>
      <trkpt lat="50.327438330277801" lon="6.357327466830611">
        <ele>505.11000000000001</ele>
        <time>2020-08-14T12:08:08Z</time>
      </trkpt>
      <trkpt lat="50.327421817928553" lon="6.357381865382195">
        <ele>505.98000000000002</ele>
        <time>2020-08-14T12:08:09Z</time>
      </trkpt>
      <trkpt lat="50.327414944767952" lon="6.35745344683528">
        <ele>505.97000000000003</ele>
        <time>2020-08-14T12:08:10Z</time>
      </trkpt>
      <trkpt lat="50.327408658340573" lon="6.357517233118415">
        <ele>506.72000000000003</ele>
        <time>2020-08-14T12:08:11Z</time>
      </trkpt>
      <trkpt lat="50.327374879270792" lon="6.357669699937105">
        <ele>507.60000000000002</ele>
        <time>2020-08-14T12:08:15Z</time>
      </trkpt>
      <trkpt lat="50.327379573136568" lon="6.357704652473331">
        <ele>508.66000000000003</ele>
        <time>2020-08-14T12:08:16Z</time>
      </trkpt>
      <trkpt lat="50.327476048842072" lon="6.358003299683332">
        <ele>511.02999999999997</ele>
        <time>2020-08-14T12:08:26Z</time>
      </trkpt>
      <trkpt lat="50.327495578676462" lon="6.358064822852612">
        <ele>511.06</ele>
        <time>2020-08-14T12:08:28Z</time>
      </trkpt>
      <trkpt lat="50.3276576846838" lon="6.358597325161099">
        <ele>514.78999999999996</ele>
        <time>2020-08-14T12:08:40Z</time>
      </trkpt>
      <trkpt lat="50.32770898193121" lon="6.358926901593804">
        <ele>517.40999999999997</ele>
        <time>2020-08-14T12:08:50Z</time>
      </trkpt>
      <trkpt lat="50.327721806243062" lon="6.359070399776101">
        <ele>519.35000000000002</ele>
        <time>2020-08-14T12:08:55Z</time>
      </trkpt>
      <trkpt lat="50.327728511765599" lon="6.359581276774406">
        <ele>520.12</ele>
        <time>2020-08-14T12:09:09Z</time>
      </trkpt>
      <trkpt lat="50.327764805406332" lon="6.359849665313959">
        <ele>521.52999999999997</ele>
        <time>2020-08-14T12:09:19Z</time>
      </trkpt>
      <trkpt lat="50.327822472900152" lon="6.360142780467868">
        <ele>523.13</ele>
        <time>2020-08-14T12:09:31Z</time>
      </trkpt>
      <trkpt lat="50.32786094583571" lon="6.360422484576702">
        <ele>524.94000000000005</ele>
        <time>2020-08-14T12:09:44Z</time>
      </trkpt>
      <trkpt lat="50.327892964705825" lon="6.360702440142632">
        <ele>528.09000000000003</ele>
        <time>2020-08-14T12:09:56Z</time>
      </trkpt>
      <trkpt lat="50.327894389629364" lon="6.360724065452814">
        <ele>528.11000000000001</ele>
        <time>2020-08-14T12:09:57Z</time>
      </trkpt>
      <trkpt lat="50.327940825372934" lon="6.361056407913566">
        <ele>528.14999999999998</ele>
        <time>2020-08-14T12:10:10Z</time>
      </trkpt>
      <trkpt lat="50.327922971919179" lon="6.361452871933579">
        <ele>530.65999999999997</ele>
        <time>2020-08-14T12:10:25Z</time>
      </trkpt>
      <trkpt lat="50.327944094315171" lon="6.361666945740581">
        <ele>531.48000000000002</ele>
        <time>2020-08-14T12:10:29Z</time>
      </trkpt>
      <trkpt lat="50.32794794999063" lon="6.36173190549016">
        <ele>532.37</ele>
        <time>2020-08-14T12:10:30Z</time>
      </trkpt>
      <trkpt lat="50.327959097921848" lon="6.361870458349586">
        <ele>533.14999999999998</ele>
        <time>2020-08-14T12:10:32Z</time>
      </trkpt>
      <trkpt lat="50.327970162034035" lon="6.361940614879131">
        <ele>534.27999999999997</ele>
        <time>2020-08-14T12:10:33Z</time>
      </trkpt>
      <trkpt lat="50.327982986345887" lon="6.362003646790981">
        <ele>534.44000000000005</ele>
        <time>2020-08-14T12:10:34Z</time>
      </trkpt>
      <trkpt lat="50.328005030751228" lon="6.362132392823696">
        <ele>535.60000000000002</ele>
        <time>2020-08-14T12:10:36Z</time>
      </trkpt>
      <trkpt lat="50.32817660830915" lon="6.362973181530833">
        <ele>539.12</ele>
        <time>2020-08-14T12:10:47Z</time>
      </trkpt>
      <trkpt lat="50.328192701563239" lon="6.363031687214971">
        <ele>539.13999999999999</ele>
        <time>2020-08-14T12:10:48Z</time>
      </trkpt>
      <trkpt lat="50.328227486461401" lon="6.363436449319124">
        <ele>541.00999999999999</ele>
        <time>2020-08-14T12:10:59Z</time>
      </trkpt>
      <trkpt lat="50.3282206133008" lon="6.363959647715092">
        <ele>544.47000000000003</ele>
        <time>2020-08-14T12:11:18Z</time>
      </trkpt>
      <trkpt lat="50.328219272196293" lon="6.364395506680012">
        <ele>547.13</ele>
        <time>2020-08-14T12:11:35Z</time>
      </trkpt>
      <trkpt lat="50.328191192820668" lon="6.364824157208204">
        <ele>548.46000000000004</ele>
        <time>2020-08-14T12:11:53Z</time>
      </trkpt>
      <trkpt lat="50.328158335760236" lon="6.365188350901008">
        <ele>551.23000000000002</ele>
        <time>2020-08-14T12:12:08Z</time>
      </trkpt>
      <trkpt lat="50.328122964128852" lon="6.365360012277961">
        <ele>548.61000000000001</ele>
        <time>2020-08-14T12:12:15Z</time>
      </trkpt>
      <trkpt lat="50.328110139816999" lon="6.365434695035219">
        <ele>551.90999999999997</ele>
        <time>2020-08-14T12:12:18Z</time>
      </trkpt>
      <trkpt lat="50.32810527831316" lon="6.365458583459258">
        <ele>551.91999999999996</ele>
        <time>2020-08-14T12:12:19Z</time>
      </trkpt>
      <trkpt lat="50.328047443181276" lon="6.365774748846889">
        <ele>549.61000000000001</ele>
        <time>2020-08-14T12:12:32Z</time>
      </trkpt>
      <trkpt lat="50.328005198389292" lon="6.366106756031513">
        <ele>549.82000000000005</ele>
        <time>2020-08-14T12:12:46Z</time>
      </trkpt>
      <trkpt lat="50.327951135113835" lon="6.3664994481951">
        <ele>549.94000000000005</ele>
        <time>2020-08-14T12:13:03Z</time>
      </trkpt>
      <trkpt lat="50.327899754047394" lon="6.3668551761657">
        <ele>550.05999999999995</ele>
        <time>2020-08-14T12:13:20Z</time>
      </trkpt>
      <trkpt lat="50.327870417386293" lon="6.367283156141639">
        <ele>550.17999999999995</ele>
        <time>2020-08-14T12:13:40Z</time>
      </trkpt>
      <trkpt lat="50.32780772075057" lon="6.367697725072503">
        <ele>550.24000000000001</ele>
        <time>2020-08-14T12:14:01Z</time>
      </trkpt>
      <trkpt lat="50.327727505937219" lon="6.368084885179997">
        <ele>552.75999999999999</ele>
        <time>2020-08-14T12:14:21Z</time>
      </trkpt>
      <trkpt lat="50.327725410461426" lon="6.368103493005037">
        <ele>552.76999999999998</ele>
        <time>2020-08-14T12:14:22Z</time>
      </trkpt>
      <trkpt lat="50.327663300558925" lon="6.368501046672463">
        <ele>552.85000000000002</ele>
        <time>2020-08-14T12:14:42Z</time>
      </trkpt>
      <trkpt lat="50.327601609751582" lon="6.368901534006">
        <ele>552.86000000000001</ele>
        <time>2020-08-14T12:15:01Z</time>
      </trkpt>
      <trkpt lat="50.327521143481135" lon="6.369325742125511">
        <ele>553.10000000000002</ele>
        <time>2020-08-14T12:15:21Z</time>
      </trkpt>
      <trkpt lat="50.327507816255093" lon="6.369371423497796">
        <ele>550.76999999999998</ele>
        <time>2020-08-14T12:15:23Z</time>
      </trkpt>
      <trkpt lat="50.327396588400006" lon="6.369661772623658">
        <ele>550.89999999999998</ele>
        <time>2020-08-14T12:15:39Z</time>
      </trkpt>
      <trkpt lat="50.327256359159946" lon="6.3699687179178">
        <ele>551.04999999999995</ele>
        <time>2020-08-14T12:15:56Z</time>
      </trkpt>
      <trkpt lat="50.327122416347265" lon="6.370264766737819">
        <ele>551.21000000000004</ele>
        <time>2020-08-14T12:16:14Z</time>
      </trkpt>
      <trkpt lat="50.326995179057121" lon="6.370550254359841">
        <ele>551.36000000000001</ele>
        <time>2020-08-14T12:16:30Z</time>
      </trkpt>
      <trkpt lat="50.326926279813051" lon="6.370812775567174">
        <ele>553.80999999999995</ele>
        <time>2020-08-14T12:16:42Z</time>
      </trkpt>
      <trkpt lat="50.326836677268147" lon="6.371213598176837">
        <ele>554.75999999999999</ele>
        <time>2020-08-14T12:17:02Z</time>
      </trkpt>
      <trkpt lat="50.326768280938268" lon="6.371540995314717">
        <ele>555.75999999999999</ele>
        <time>2020-08-14T12:17:18Z</time>
      </trkpt>
      <trkpt lat="50.326699633151293" lon="6.371915247291327">
        <ele>557.46000000000004</ele>
        <time>2020-08-14T12:17:35Z</time>
      </trkpt>
      <trkpt lat="50.326599469408393" lon="6.372244739905">
        <ele>558.34000000000003</ele>
        <time>2020-08-14T12:17:52Z</time>
      </trkpt>
      <trkpt lat="50.326536521315575" lon="6.372638018801808">
        <ele>559.34000000000003</ele>
        <time>2020-08-14T12:18:10Z</time>
      </trkpt>
      <trkpt lat="50.326482960954309" lon="6.37305392883718">
        <ele>561.08000000000004</ele>
        <time>2020-08-14T12:18:29Z</time>
      </trkpt>
      <trkpt lat="50.326420431956649" lon="6.37347511947155">
        <ele>561.17999999999995</ele>
        <time>2020-08-14T12:18:49Z</time>
      </trkpt>
      <trkpt lat="50.326326219365001" lon="6.373782400041819">
        <ele>561.26999999999998</ele>
        <time>2020-08-14T12:19:04Z</time>
      </trkpt>
      <trkpt lat="50.32631884329021" lon="6.373804276809096">
        <ele>557.22000000000003</ele>
        <time>2020-08-14T12:19:05Z</time>
      </trkpt>
      <trkpt lat="50.32631054520607" lon="6.373825399205089">
        <ele>561.90999999999997</ele>
        <time>2020-08-14T12:19:06Z</time>
      </trkpt>
      <trkpt lat="50.326157743111253" lon="6.374078867956996">
        <ele>561.97000000000003</ele>
        <time>2020-08-14T12:19:22Z</time>
      </trkpt>
      <trkpt lat="50.326096136122942" lon="6.374180959537625">
        <ele>561.98000000000002</ele>
        <time>2020-08-14T12:19:28Z</time>
      </trkpt>
      <trkpt lat="50.325994463637471" lon="6.374496286734939">
        <ele>562.10000000000002</ele>
        <time>2020-08-14T12:19:44Z</time>
      </trkpt>
      <trkpt lat="50.325899748131633" lon="6.374864252284169">
        <ele>562.13999999999999</ele>
        <time>2020-08-14T12:20:02Z</time>
      </trkpt>
      <trkpt lat="50.325796650722623" lon="6.375100370496512">
        <ele>562.98000000000002</ele>
        <time>2020-08-14T12:20:16Z</time>
      </trkpt>
      <trkpt lat="50.325639070942998" lon="6.375293908640742">
        <ele>562.99000000000001</ele>
        <time>2020-08-14T12:20:29Z</time>
      </trkpt>
      <trkpt lat="50.325485682114959" lon="6.375486608594656">
        <ele>563.15999999999997</ele>
        <time>2020-08-14T12:20:44Z</time>
      </trkpt>
      <trkpt lat="50.325297424569726" lon="6.375734880566597">
        <ele>563.14999999999998</ele>
        <time>2020-08-14T12:21:01Z</time>
      </trkpt>
      <trkpt lat="50.325124505907297" lon="6.375931184738874">
        <ele>563.13999999999999</ele>
        <time>2020-08-14T12:21:16Z</time>
      </trkpt>
      <trkpt lat="50.324941528961062" lon="6.376165458932519">
        <ele>563.27999999999997</ele>
        <time>2020-08-14T12:21:33Z</time>
      </trkpt>
      <trkpt lat="50.324929626658559" lon="6.376180127263069">
        <ele>563.25999999999999</ele>
        <time>2020-08-14T12:21:34Z</time>
      </trkpt>
      <trkpt lat="50.324916802346706" lon="6.376191945746541">
        <ele>563.26999999999998</ele>
        <time>2020-08-14T12:21:35Z</time>
      </trkpt>
      <trkpt lat="50.324906911700964" lon="6.376207619905472">
        <ele>563.25</ele>
        <time>2020-08-14T12:21:36Z</time>
      </trkpt>
      <trkpt lat="50.324896182864904" lon="6.376226143911481">
        <ele>563.24000000000001</ele>
        <time>2020-08-14T12:21:37Z</time>
      </trkpt>
      <trkpt lat="50.324695603922009" lon="6.376510625705123">
        <ele>564.14999999999998</ele>
        <time>2020-08-14T12:21:55Z</time>
      </trkpt>
      <trkpt lat="50.324548585340381" lon="6.376785133033991">
        <ele>564.99000000000001</ele>
        <time>2020-08-14T12:22:11Z</time>
      </trkpt>
      <trkpt lat="50.324382958933711" lon="6.377097358927131">
        <ele>565.07000000000005</ele>
        <time>2020-08-14T12:22:28Z</time>
      </trkpt>
      <trkpt lat="50.324265444651246" lon="6.377317467704415">
        <ele>565.98000000000002</ele>
        <time>2020-08-14T12:22:42Z</time>
      </trkpt>
      <trkpt lat="50.324192605912685" lon="6.377439172938466">
        <ele>563.42999999999995</ele>
        <time>2020-08-14T12:22:49Z</time>
      </trkpt>
      <trkpt lat="50.324181793257594" lon="6.377456607297063">
        <ele>566.52999999999997</ele>
        <time>2020-08-14T12:22:50Z</time>
      </trkpt>
      <trkpt lat="50.324158994480968" lon="6.377494493499398">
        <ele>568</ele>
        <time>2020-08-14T12:22:52Z</time>
      </trkpt>
      <trkpt lat="50.32409361563623" lon="6.377617623656988">
        <ele>564.90999999999997</ele>
        <time>2020-08-14T12:22:59Z</time>
      </trkpt>
      <trkpt lat="50.324087161570787" lon="6.377637824043632">
        <ele>564.91999999999996</ele>
        <time>2020-08-14T12:23:00Z</time>
      </trkpt>
      <trkpt lat="50.32393041998148" lon="6.377909649163485">
        <ele>565.10000000000002</ele>
        <time>2020-08-14T12:23:15Z</time>
      </trkpt>
      <trkpt lat="50.323808211833239" lon="6.378101846203208">
        <ele>565.15999999999997</ele>
        <time>2020-08-14T12:23:28Z</time>
      </trkpt>
      <trkpt lat="50.323627917096019" lon="6.378245009109378">
        <ele>565.19000000000005</ele>
        <time>2020-08-14T12:23:43Z</time>
      </trkpt>
      <trkpt lat="50.323401018977165" lon="6.378372916951776">
        <ele>563.25999999999999</ele>
        <time>2020-08-14T12:23:59Z</time>
      </trkpt>
      <trkpt lat="50.323170516639948" lon="6.378479283303022">
        <ele>563.38</ele>
        <time>2020-08-14T12:24:16Z</time>
      </trkpt>
      <trkpt lat="50.322981588542461" lon="6.37854315340519">
        <ele>563.41999999999996</ele>
        <time>2020-08-14T12:24:29Z</time>
      </trkpt>
      <trkpt lat="50.322748571634293" lon="6.37862085364759">
        <ele>563.48000000000002</ele>
        <time>2020-08-14T12:24:46Z</time>
      </trkpt>
      <trkpt lat="50.322643546387553" lon="6.378667876124382">
        <ele>565.49000000000001</ele>
        <time>2020-08-14T12:24:53Z</time>
      </trkpt>
      <trkpt lat="50.322459815070033" lon="6.378741720691323">
        <ele>565.49000000000001</ele>
        <time>2020-08-14T12:25:07Z</time>
      </trkpt>
      <trkpt lat="50.322231827303767" lon="6.378847332671285">
        <ele>565.55999999999995</ele>
        <time>2020-08-14T12:25:24Z</time>
      </trkpt>
      <trkpt lat="50.321976011618972" lon="6.378921680152416">
        <ele>565.54999999999995</ele>
        <time>2020-08-14T12:25:42Z</time>
      </trkpt>
      <trkpt lat="50.32179513014853" lon="6.378995943814516">
        <ele>563.16999999999996</ele>
        <time>2020-08-14T12:25:55Z</time>
      </trkpt>
      <trkpt lat="50.321604944765568" lon="6.379078840836883">
        <ele>563.16999999999996</ele>
        <time>2020-08-14T12:26:08Z</time>
      </trkpt>
      <trkpt lat="50.321409059688449" lon="6.379190655425191">
        <ele>563.19000000000005</ele>
        <time>2020-08-14T12:26:22Z</time>
      </trkpt>
      <trkpt lat="50.321161625906825" lon="6.379300961270928">
        <ele>563.25</ele>
        <time>2020-08-14T12:26:39Z</time>
      </trkpt>
      <trkpt lat="50.321079818531871" lon="6.379355862736702">
        <ele>565.60000000000002</ele>
        <time>2020-08-14T12:26:45Z</time>
      </trkpt>
      <trkpt lat="50.320956520736217" lon="6.379380254074931">
        <ele>561.80999999999995</ele>
        <time>2020-08-14T12:26:52Z</time>
      </trkpt>
      <trkpt lat="50.320921652019024" lon="6.37938897125423">
        <ele>568.09000000000003</ele>
        <time>2020-08-14T12:26:54Z</time>
      </trkpt>
      <trkpt lat="50.320911929011345" lon="6.379391988739371">
        <ele>563.79999999999995</ele>
        <time>2020-08-14T12:26:55Z</time>
      </trkpt>
      <trkpt lat="50.320907235145569" lon="6.379390060901642">
        <ele>568.71000000000004</ele>
        <time>2020-08-14T12:26:56Z</time>
      </trkpt>
      <trkpt lat="50.320888543501496" lon="6.379377320408821">
        <ele>566.14999999999998</ele>
        <time>2020-08-14T12:26:58Z</time>
      </trkpt>
      <trkpt lat="50.320875216275454" lon="6.379373800009489">
        <ele>566.13999999999999</ele>
        <time>2020-08-14T12:26:59Z</time>
      </trkpt>
      <trkpt lat="50.320860967040062" lon="6.379375560209155">
        <ele>566.16999999999996</ele>
        <time>2020-08-14T12:27:00Z</time>
      </trkpt>
      <trkpt lat="50.320844706147909" lon="6.379379332065582">
        <ele>566.13</ele>
        <time>2020-08-14T12:27:01Z</time>
      </trkpt>
      <trkpt lat="50.320827942341566" lon="6.379379751160741">
        <ele>565.24000000000001</ele>
        <time>2020-08-14T12:27:02Z</time>
      </trkpt>
      <trkpt lat="50.320813693106174" lon="6.379379332065582">
        <ele>565.25999999999999</ele>
        <time>2020-08-14T12:27:03Z</time>
      </trkpt>
      <trkpt lat="50.320800701156259" lon="6.379383271560073">
        <ele>565.29999999999995</ele>
        <time>2020-08-14T12:27:04Z</time>
      </trkpt>
      <trkpt lat="50.320787122473121" lon="6.379387211054564">
        <ele>565.32000000000005</ele>
        <time>2020-08-14T12:27:05Z</time>
      </trkpt>
      <trkpt lat="50.320773292332888" lon="6.379388049244881">
        <ele>565.29999999999995</ele>
        <time>2020-08-14T12:27:06Z</time>
      </trkpt>
      <trkpt lat="50.320561481639743" lon="6.379413530230522">
        <ele>567.90999999999997</ele>
        <time>2020-08-14T12:27:20Z</time>
      </trkpt>
      <trkpt lat="50.320274904370308" lon="6.379445549100637">
        <ele>567.88</ele>
        <time>2020-08-14T12:27:39Z</time>
      </trkpt>
      <trkpt lat="50.319944741204381" lon="6.379499696195126">
        <ele>569.00999999999999</ele>
        <time>2020-08-14T12:28:02Z</time>
      </trkpt>
      <trkpt lat="50.319635700434446" lon="6.379588292911649">
        <ele>568.91999999999996</ele>
        <time>2020-08-14T12:28:23Z</time>
      </trkpt>
      <trkpt lat="50.319310231134295" lon="6.379673620685935">
        <ele>568.99000000000001</ele>
        <time>2020-08-14T12:28:47Z</time>
      </trkpt>
      <trkpt lat="50.319226747378707" lon="6.379687115550041">
        <ele>566.64999999999998</ele>
        <time>2020-08-14T12:28:53Z</time>
      </trkpt>
      <trkpt lat="50.319097163155675" lon="6.379677895456553">
        <ele>565.20000000000005</ele>
        <time>2020-08-14T12:29:02Z</time>
      </trkpt>
      <trkpt lat="50.319024240598083" lon="6.379721313714981">
        <ele>563.71000000000004</ele>
        <time>2020-08-14T12:29:07Z</time>
      </trkpt>
      <trkpt lat="50.318813351914287" lon="6.379848886281252">
        <ele>562.77999999999997</ele>
        <time>2020-08-14T12:29:23Z</time>
      </trkpt>
      <trkpt lat="50.31871234998107" lon="6.379909068346024">
        <ele>561.64999999999998</ele>
        <time>2020-08-14T12:29:31Z</time>
      </trkpt>
      <trkpt lat="50.318421581760049" lon="6.380073102191091">
        <ele>558.00999999999999</ele>
        <time>2020-08-14T12:29:51Z</time>
      </trkpt>
      <trkpt lat="50.318186050280929" lon="6.380256665870547">
        <ele>556.24000000000001</ele>
        <time>2020-08-14T12:30:08Z</time>
      </trkpt>
      <trkpt lat="50.317978849634528" lon="6.380540644749999">
        <ele>553.75</ele>
        <time>2020-08-14T12:30:26Z</time>
      </trkpt>
      <trkpt lat="50.317790508270264" lon="6.38094088062644">
        <ele>551.98000000000002</ele>
        <time>2020-08-14T12:30:47Z</time>
      </trkpt>
      <trkpt lat="50.317588839679956" lon="6.381305744871497">
        <ele>549.40999999999997</ele>
        <time>2020-08-14T12:31:07Z</time>
      </trkpt>
      <trkpt lat="50.317380214110017" lon="6.381266014650464">
        <ele>545.99000000000001</ele>
        <time>2020-08-14T12:31:23Z</time>
      </trkpt>
      <trkpt lat="50.317212743684649" lon="6.380901737138629">
        <ele>543.50999999999999</ele>
        <time>2020-08-14T12:31:43Z</time>
      </trkpt>
      <trkpt lat="50.317103024572134" lon="6.380603425204754">
        <ele>542.63999999999999</ele>
        <time>2020-08-14T12:31:58Z</time>
      </trkpt>
      <trkpt lat="50.316948713734746" lon="6.380509212613106">
        <ele>539.77999999999997</ele>
        <time>2020-08-14T12:32:11Z</time>
      </trkpt>
      <trkpt lat="50.316844778135419" lon="6.380696129053831">
        <ele>539.86000000000001</ele>
        <time>2020-08-14T12:32:25Z</time>
      </trkpt>
      <trkpt lat="50.316787110641599" lon="6.38098681345582">
        <ele>538.26999999999998</ele>
        <time>2020-08-14T12:32:41Z</time>
      </trkpt>
      <trkpt lat="50.316780153661966" lon="6.381296357139945">
        <ele>536.58000000000004</ele>
        <time>2020-08-14T12:32:57Z</time>
      </trkpt>
      <trkpt lat="50.316757773980498" lon="6.381600284948945">
        <ele>534.15999999999997</ele>
        <time>2020-08-14T12:33:13Z</time>
      </trkpt>
      <trkpt lat="50.316692143678665" lon="6.381876552477479">
        <ele>532.48000000000002</ele>
        <time>2020-08-14T12:33:28Z</time>
      </trkpt>
      <trkpt lat="50.316656101495028" lon="6.382144857198">
        <ele>530.72000000000003</ele>
        <time>2020-08-14T12:33:42Z</time>
      </trkpt>
      <trkpt lat="50.316638667136431" lon="6.382433446124196">
        <ele>528.86000000000001</ele>
        <time>2020-08-14T12:33:56Z</time>
      </trkpt>
      <trkpt lat="50.316627016291022" lon="6.382714323699474">
        <ele>526.14999999999998</ele>
        <time>2020-08-14T12:34:09Z</time>
      </trkpt>
      <trkpt lat="50.316572114825249" lon="6.382942898198962">
        <ele>525.04999999999995</ele>
        <time>2020-08-14T12:34:18Z</time>
      </trkpt>
      <trkpt lat="50.316490307450294" lon="6.383086647838354">
        <ele>525.01999999999998</ele>
        <time>2020-08-14T12:34:21Z</time>
      </trkpt>
      <trkpt lat="50.316461138427258" lon="6.383028980344534">
        <ele>524.92999999999995</ele>
        <time>2020-08-14T12:34:28Z</time>
      </trkpt>
      <trkpt lat="50.316445464268327" lon="6.382968127727509">
        <ele>523.62</ele>
        <time>2020-08-14T12:34:32Z</time>
      </trkpt>
      <trkpt lat="50.316399279981852" lon="6.382676772773266">
        <ele>523.5</ele>
        <time>2020-08-14T12:34:46Z</time>
      </trkpt>
      <trkpt lat="50.316308923065662" lon="6.382213672623038">
        <ele>522.65999999999997</ele>
        <time>2020-08-14T12:34:59Z</time>
      </trkpt>
      <trkpt lat="50.316224098205566" lon="6.381643703207374">
        <ele>520.80999999999995</ele>
        <time>2020-08-14T12:35:10Z</time>
      </trkpt>
      <trkpt lat="50.316064842045307" lon="6.380831832066178">
        <ele>519.08000000000004</ele>
        <time>2020-08-14T12:35:25Z</time>
      </trkpt>
      <trkpt lat="50.315890498459339" lon="6.380028007552028">
        <ele>518.27999999999997</ele>
        <time>2020-08-14T12:35:40Z</time>
      </trkpt>
      <trkpt lat="50.315939448773861" lon="6.379583431407809">
        <ele>517.41999999999996</ele>
        <time>2020-08-14T12:35:52Z</time>
      </trkpt>
      <trkpt lat="50.315965935587883" lon="6.379139190539718">
        <ele>517.44000000000005</ele>
        <time>2020-08-14T12:36:04Z</time>
      </trkpt>
      <trkpt lat="50.316010108217597" lon="6.378647005185485">
        <ele>516.62</ele>
        <time>2020-08-14T12:36:15Z</time>
      </trkpt>
      <trkpt lat="50.316074565052986" lon="6.378081142902374">
        <ele>514.76999999999998</ele>
        <time>2020-08-14T12:36:27Z</time>
      </trkpt>
      <trkpt lat="50.316048162057996" lon="6.377683589234948">
        <ele>513.89999999999998</ele>
        <time>2020-08-14T12:36:33Z</time>
      </trkpt>
      <trkpt lat="50.316039025783539" lon="6.377178998664022">
        <ele>512.97000000000003</ele>
        <time>2020-08-14T12:36:41Z</time>
      </trkpt>
      <trkpt lat="50.315903490409255" lon="6.377041703090072">
        <ele>512.91999999999996</ele>
        <time>2020-08-14T12:36:46Z</time>
      </trkpt>
      <trkpt lat="50.315544409677386" lon="6.376829976215959">
        <ele>511.75</ele>
        <time>2020-08-14T12:36:59Z</time>
      </trkpt>
      <trkpt lat="50.3153330180794" lon="6.376720005646348">
        <ele>511.56</ele>
        <time>2020-08-14T12:37:09Z</time>
      </trkpt>
      <trkpt lat="50.315235117450356" lon="6.376570304855704">
        <ele>511.44</ele>
        <time>2020-08-14T12:37:13Z</time>
      </trkpt>
      <trkpt lat="50.314986258745193" lon="6.376530155539513">
        <ele>511.11000000000001</ele>
        <time>2020-08-14T12:37:25Z</time>
      </trkpt>
      <trkpt lat="50.314902439713478" lon="6.376464860513806">
        <ele>510.94</ele>
        <time>2020-08-14T12:37:31Z</time>
      </trkpt>
      <trkpt lat="50.314858099445701" lon="6.376452874392271">
        <ele>510.87</ele>
        <time>2020-08-14T12:37:33Z</time>
      </trkpt>
      <trkpt lat="50.314621226862073" lon="6.376412808895111">
        <ele>510.5</ele>
        <time>2020-08-14T12:37:50Z</time>
      </trkpt>
      <trkpt lat="50.314523493871093" lon="6.376309376209974">
        <ele>512.59000000000003</ele>
        <time>2020-08-14T12:37:59Z</time>
      </trkpt>
      <trkpt lat="50.314212692901492" lon="6.376095553860068">
        <ele>512.03999999999996</ele>
        <time>2020-08-14T12:38:20Z</time>
      </trkpt>
      <trkpt lat="50.313997026532888" lon="6.375926407054067">
        <ele>511.56</ele>
        <time>2020-08-14T12:38:37Z</time>
      </trkpt>
      <trkpt lat="50.313887726515532" lon="6.375759104266763">
        <ele>508.98000000000002</ele>
        <time>2020-08-14T12:38:47Z</time>
      </trkpt>
      <trkpt lat="50.313682956621051" lon="6.375403208658099">
        <ele>505.85000000000002</ele>
        <time>2020-08-14T12:39:02Z</time>
      </trkpt>
      <trkpt lat="50.313633838668466" lon="6.375361969694495">
        <ele>505.76999999999998</ele>
        <time>2020-08-14T12:39:05Z</time>
      </trkpt>
      <trkpt lat="50.31351724639535" lon="6.375244120135903">
        <ele>505.56999999999999</ele>
        <time>2020-08-14T12:39:13Z</time>
      </trkpt>
      <trkpt lat="50.313351284712553" lon="6.375061813741922">
        <ele>505.23000000000002</ele>
        <time>2020-08-14T12:39:26Z</time>
      </trkpt>
      <trkpt lat="50.313296215608716" lon="6.375014875084162">
        <ele>505.05000000000001</ele>
        <time>2020-08-14T12:39:33Z</time>
      </trkpt>
      <trkpt lat="50.313250869512558" lon="6.375034488737583">
        <ele>504.94</ele>
        <time>2020-08-14T12:39:37Z</time>
      </trkpt>
      <trkpt lat="50.313231591135263" lon="6.375058963894844">
        <ele>504.89999999999998</ele>
        <time>2020-08-14T12:39:39Z</time>
      </trkpt>
      <trkpt lat="50.313201835379004" lon="6.375111099332571">
        <ele>507.33999999999997</ele>
        <time>2020-08-14T12:39:43Z</time>
      </trkpt>
      <trkpt lat="50.313023552298546" lon="6.375308996066451">
        <ele>510.60000000000002</ele>
        <time>2020-08-14T12:39:56Z</time>
      </trkpt>
      <trkpt lat="50.312905535101891" lon="6.375442268326879">
        <ele>511.92000000000002</ele>
        <time>2020-08-14T12:40:08Z</time>
      </trkpt>
      <trkpt lat="50.312769832089543" lon="6.375626837834716">
        <ele>515.49000000000001</ele>
        <time>2020-08-14T12:40:23Z</time>
      </trkpt>
      <trkpt lat="50.312703447416425" lon="6.375806462019682">
        <ele>518.26999999999998</ele>
        <time>2020-08-14T12:40:34Z</time>
      </trkpt>
      <trkpt lat="50.312593728303909" lon="6.375996815040708">
        <ele>521.15999999999997</ele>
        <time>2020-08-14T12:40:46Z</time>
      </trkpt>
      <trkpt lat="50.312494318932295" lon="6.376265035942197">
        <ele>524.26999999999998</ele>
        <time>2020-08-14T12:40:59Z</time>
      </trkpt>
      <trkpt lat="50.312448050826788" lon="6.376367881894112">
        <ele>525.80999999999995</ele>
        <time>2020-08-14T12:41:05Z</time>
      </trkpt>
      <trkpt lat="50.312318718060851" lon="6.376417418941855">
        <ele>525.62</ele>
        <time>2020-08-14T12:41:12Z</time>
      </trkpt>
      <trkpt lat="50.312160132452846" lon="6.376420017331839">
        <ele>528.85000000000002</ele>
        <time>2020-08-14T12:41:21Z</time>
      </trkpt>
      <trkpt lat="50.31205091625452" lon="6.376467207446694">
        <ele>531.98000000000002</ele>
        <time>2020-08-14T12:41:28Z</time>
      </trkpt>
      <trkpt lat="50.311958631500602" lon="6.376475086435676">
        <ele>534.52999999999997</ele>
        <time>2020-08-14T12:41:35Z</time>
      </trkpt>
      <trkpt lat="50.311908340081573" lon="6.376701481640339">
        <ele>535.88999999999999</ele>
        <time>2020-08-14T12:41:48Z</time>
      </trkpt>
      <trkpt lat="50.311868274584413" lon="6.377060227096081">
        <ele>537.27999999999997</ele>
        <time>2020-08-14T12:42:02Z</time>
      </trkpt>
      <trkpt lat="50.311805410310626" lon="6.377379577606916">
        <ele>538.87</ele>
        <time>2020-08-14T12:42:15Z</time>
      </trkpt>
      <trkpt lat="50.311788311228156" lon="6.377500863745809">
        <ele>540.15999999999997</ele>
        <time>2020-08-14T12:42:20Z</time>
      </trkpt>
      <trkpt lat="50.311715053394437" lon="6.377715021371841">
        <ele>541.76999999999998</ele>
        <time>2020-08-14T12:42:29Z</time>
      </trkpt>
      <trkpt lat="50.311551773920655" lon="6.377938650548458">
        <ele>545.17999999999995</ele>
        <time>2020-08-14T12:42:43Z</time>
      </trkpt>
      <trkpt lat="50.311425542458892" lon="6.378079298883677">
        <ele>548.75</ele>
        <time>2020-08-14T12:42:53Z</time>
      </trkpt>
      <trkpt lat="50.311253378167748" lon="6.378264203667641">
        <ele>551.88999999999999</ele>
        <time>2020-08-14T12:43:05Z</time>
      </trkpt>
      <trkpt lat="50.31124415807426" lon="6.378271663561463">
        <ele>551.85000000000002</ele>
        <time>2020-08-14T12:43:06Z</time>
      </trkpt>
      <trkpt lat="50.311130499467254" lon="6.378378113731742">
        <ele>554.27999999999997</ele>
        <time>2020-08-14T12:43:17Z</time>
      </trkpt>
      <trkpt lat="50.310971159487963" lon="6.378597216680646">
        <ele>556.00999999999999</ele>
        <time>2020-08-14T12:43:30Z</time>
      </trkpt>
      <trkpt lat="50.310813579708338" lon="6.37875521555543">
        <ele>558.41999999999996</ele>
        <time>2020-08-14T12:43:43Z</time>
      </trkpt>
      <trkpt lat="50.310575617477298" lon="6.379057969897986">
        <ele>560.20000000000005</ele>
        <time>2020-08-14T12:43:59Z</time>
      </trkpt>
      <trkpt lat="50.310385851189494" lon="6.379328286275268">
        <ele>561.80999999999995</ele>
        <time>2020-08-14T12:44:16Z</time>
      </trkpt>
      <trkpt lat="50.310332961380482" lon="6.379384696483612">
        <ele>563.58000000000004</ele>
        <time>2020-08-14T12:44:24Z</time>
      </trkpt>
      <trkpt lat="50.310266241431236" lon="6.379396514967084">
        <ele>563.59000000000003</ele>
        <time>2020-08-14T12:44:29Z</time>
      </trkpt>
      <trkpt lat="50.310071278363466" lon="6.379345133900642">
        <ele>563.66999999999996</ele>
        <time>2020-08-14T12:44:46Z</time>
      </trkpt>
      <trkpt lat="50.309945549815893" lon="6.37931227684021">
        <ele>562.25999999999999</ele>
        <time>2020-08-14T12:44:55Z</time>
      </trkpt>
      <trkpt lat="50.309732398018241" lon="6.379252932965756">
        <ele>561.54999999999995</ele>
        <time>2020-08-14T12:45:11Z</time>
      </trkpt>
      <trkpt lat="50.309682860970497" lon="6.379304146394134">
        <ele>561.63999999999999</ele>
        <time>2020-08-14T12:45:24Z</time>
      </trkpt>
      <trkpt lat="50.309674898162484" lon="6.379355192184448">
        <ele>561.76999999999998</ele>
        <time>2020-08-14T12:45:45Z</time>
      </trkpt>
      <trkpt lat="50.309676742181182" lon="6.379367848858237">
        <ele>561.97000000000003</ele>
        <time>2020-08-14T12:46:17Z</time>
      </trkpt>
      <trkpt lat="50.309644471853971" lon="6.379485866054893">
        <ele>562.11000000000001</ele>
        <time>2020-08-14T12:46:36Z</time>
      </trkpt>
      <trkpt lat="50.309593258425593" lon="6.379577647894621">
        <ele>562.14999999999998</ele>
        <time>2020-08-14T12:46:43Z</time>
      </trkpt>
      <trkpt lat="50.30944162979722" lon="6.3799430988729">
        <ele>562.27999999999997</ele>
        <time>2020-08-14T12:47:03Z</time>
      </trkpt>
      <trkpt lat="50.309302238747478" lon="6.380293965339661">
        <ele>562.38</ele>
        <time>2020-08-14T12:47:21Z</time>
      </trkpt>
      <trkpt lat="50.309233088046312" lon="6.380517594516277">
        <ele>565.05999999999995</ele>
        <time>2020-08-14T12:47:32Z</time>
      </trkpt>
      <trkpt lat="50.309162680059671" lon="6.380887990817428">
        <ele>566.00999999999999</ele>
        <time>2020-08-14T12:47:48Z</time>
      </trkpt>
      <trkpt lat="50.309064192697406" lon="6.381160402670503">
        <ele>568.35000000000002</ele>
        <time>2020-08-14T12:48:01Z</time>
      </trkpt>
      <trkpt lat="50.309056648984551" lon="6.381210526451469">
        <ele>565.12</ele>
        <time>2020-08-14T12:48:03Z</time>
      </trkpt>
      <trkpt lat="50.309055559337139" lon="6.381234163418412">
        <ele>565.13</ele>
        <time>2020-08-14T12:48:04Z</time>
      </trkpt>
      <trkpt lat="50.309072826057673" lon="6.381417224183679">
        <ele>567.67999999999995</ele>
        <time>2020-08-14T12:48:12Z</time>
      </trkpt>
      <trkpt lat="50.309138204902411" lon="6.381834391504526">
        <ele>566.27999999999997</ele>
        <time>2020-08-14T12:48:29Z</time>
      </trkpt>
      <trkpt lat="50.30914256349206" lon="6.382026756182313">
        <ele>568.80999999999995</ele>
        <time>2020-08-14T12:48:38Z</time>
      </trkpt>
      <trkpt lat="50.309181036427617" lon="6.382160112261772">
        <ele>568.78999999999996</ele>
        <time>2020-08-14T12:48:45Z</time>
      </trkpt>
      <trkpt lat="50.309194028377533" lon="6.38253771699965">
        <ele>568.80999999999995</ele>
        <time>2020-08-14T12:49:01Z</time>
      </trkpt>
      <trkpt lat="50.309122949838638" lon="6.38285874389112">
        <ele>568.84000000000003</ele>
        <time>2020-08-14T12:49:16Z</time>
      </trkpt>
      <trkpt lat="50.309008285403252" lon="6.383154289796948">
        <ele>568.94000000000005</ele>
        <time>2020-08-14T12:49:32Z</time>
      </trkpt>
      <trkpt lat="50.308957826346159" lon="6.383278928697109">
        <ele>568.98000000000002</ele>
        <time>2020-08-14T12:49:39Z</time>
      </trkpt>
      <trkpt lat="50.30885573476553" lon="6.383499791845679">
        <ele>569.76999999999998</ele>
        <time>2020-08-14T12:49:52Z</time>
      </trkpt>
      <trkpt lat="50.308687509968877" lon="6.38371679931879">
        <ele>569.78999999999996</ele>
        <time>2020-08-14T12:50:07Z</time>
      </trkpt>
      <trkpt lat="50.308668147772551" lon="6.383739681914449">
        <ele>570.63999999999999</ele>
        <time>2020-08-14T12:50:09Z</time>
      </trkpt>
      <trkpt lat="50.308612156659365" lon="6.383831631392241">
        <ele>570.64999999999998</ele>
        <time>2020-08-14T12:50:18Z</time>
      </trkpt>
      <trkpt lat="50.308434292674065" lon="6.383962221443653">
        <ele>573.33000000000004</ele>
        <time>2020-08-14T12:50:33Z</time>
      </trkpt>
      <trkpt lat="50.308323819190264" lon="6.384022068232298">
        <ele>573.36000000000001</ele>
        <time>2020-08-14T12:50:40Z</time>
      </trkpt>
      <trkpt lat="50.308250393718481" lon="6.38410379178822">
        <ele>573.32000000000005</ele>
        <time>2020-08-14T12:50:45Z</time>
      </trkpt>
      <trkpt lat="50.308102453127503" lon="6.384412413462997">
        <ele>574.19000000000005</ele>
        <time>2020-08-14T12:51:01Z</time>
      </trkpt>
      <trkpt lat="50.308055179193616" lon="6.384683484211564">
        <ele>575.07000000000005</ele>
        <time>2020-08-14T12:51:14Z</time>
      </trkpt>
      <trkpt lat="50.308004887774587" lon="6.385054299607873">
        <ele>576.88999999999999</ele>
        <time>2020-08-14T12:51:31Z</time>
      </trkpt>
      <trkpt lat="50.307990806177258" lon="6.385134346783161">
        <ele>576.87</ele>
        <time>2020-08-14T12:51:35Z</time>
      </trkpt>
      <trkpt lat="50.307947304099798" lon="6.385476998984814">
        <ele>577.66999999999996</ele>
        <time>2020-08-14T12:51:50Z</time>
      </trkpt>
      <trkpt lat="50.307948142290115" lon="6.385499378666282">
        <ele>577.66999999999996</ele>
        <time>2020-08-14T12:51:51Z</time>
      </trkpt>
      <trkpt lat="50.307991309091449" lon="6.385717559605837">
        <ele>577.67999999999995</ele>
        <time>2020-08-14T12:52:02Z</time>
      </trkpt>
      <trkpt lat="50.308033470064402" lon="6.386016374453902">
        <ele>578.45000000000005</ele>
        <time>2020-08-14T12:52:15Z</time>
      </trkpt>
      <trkpt lat="50.30809155665338" lon="6.386385932564735">
        <ele>579.51999999999998</ele>
        <time>2020-08-14T12:52:32Z</time>
      </trkpt>
      <trkpt lat="50.30810572206974" lon="6.386738391593099">
        <ele>580.55999999999995</ele>
        <time>2020-08-14T12:52:48Z</time>
      </trkpt>
      <trkpt lat="50.308088874444366" lon="6.387060591951013">
        <ele>581.39999999999998</ele>
        <time>2020-08-14T12:53:03Z</time>
      </trkpt>
      <trkpt lat="50.308020310476422" lon="6.387407770380378">
        <ele>581.53999999999996</ele>
        <time>2020-08-14T12:53:19Z</time>
      </trkpt>
      <trkpt lat="50.307952919974923" lon="6.387719660997391">
        <ele>582.33000000000004</ele>
        <time>2020-08-14T12:53:34Z</time>
      </trkpt>
      <trkpt lat="50.307945962995291" lon="6.387764252722263">
        <ele>584.25</ele>
        <time>2020-08-14T12:53:36Z</time>
      </trkpt>
      <trkpt lat="50.307922242209315" lon="6.387828877195716">
        <ele>584.35000000000002</ele>
        <time>2020-08-14T12:53:50Z</time>
      </trkpt>
      <trkpt lat="50.307891648262739" lon="6.387959970161319">
        <ele>584.46000000000004</ele>
        <time>2020-08-14T12:54:19Z</time>
      </trkpt>
      <trkpt lat="50.307799782603979" lon="6.388324331492186">
        <ele>584.57000000000005</ele>
        <time>2020-08-14T12:54:36Z</time>
      </trkpt>
      <trkpt lat="50.3077089227736" lon="6.388651560992003">
        <ele>585.39999999999998</ele>
        <time>2020-08-14T12:54:52Z</time>
      </trkpt>
      <trkpt lat="50.3076605591923" lon="6.388866640627384">
        <ele>585.44000000000005</ele>
        <time>2020-08-14T12:55:03Z</time>
      </trkpt>
      <trkpt lat="50.307572884485126" lon="6.389217674732208">
        <ele>586.23000000000002</ele>
        <time>2020-08-14T12:55:20Z</time>
      </trkpt>
      <trkpt lat="50.307582942768931" lon="6.389276431873441">
        <ele>586.23000000000002</ele>
        <time>2020-08-14T12:55:23Z</time>
      </trkpt>
      <trkpt lat="50.307668019086123" lon="6.389144333079457">
        <ele>586.25</ele>
        <time>2020-08-14T12:55:33Z</time>
      </trkpt>
      <trkpt lat="50.307702720165253" lon="6.389000080525875">
        <ele>586.25999999999999</ele>
        <time>2020-08-14T12:55:40Z</time>
      </trkpt>
      <trkpt lat="50.307780588045716" lon="6.388964708894491">
        <ele>586.32000000000005</ele>
        <time>2020-08-14T12:55:54Z</time>
      </trkpt>
      <trkpt lat="50.30777296051383" lon="6.388910477980971">
        <ele>586.51999999999998</ele>
        <time>2020-08-14T12:56:23Z</time>
      </trkpt>
      <trkpt lat="50.307748820632696" lon="6.388876447454095">
        <ele>586.57000000000005</ele>
        <time>2020-08-14T12:56:31Z</time>
      </trkpt>
      <trkpt lat="50.307727865874767" lon="6.388874854892492">
        <ele>586.58000000000004</ele>
        <time>2020-08-14T12:56:33Z</time>
      </trkpt>
      <trkpt lat="50.307657709345222" lon="6.389164365828037">
        <ele>586.71000000000004</ele>
        <time>2020-08-14T12:56:48Z</time>
      </trkpt>
      <trkpt lat="50.307667935267091" lon="6.389213399961591">
        <ele>586.72000000000003</ele>
        <time>2020-08-14T12:56:50Z</time>
      </trkpt>
      <trkpt lat="50.307722417637706" lon="6.389250364154577">
        <ele>586.77999999999997</ele>
        <time>2020-08-14T12:57:04Z</time>
      </trkpt>
      <trkpt lat="50.307712024077773" lon="6.389185320585966">
        <ele>586.91999999999996</ele>
        <time>2020-08-14T12:57:24Z</time>
      </trkpt>
      <trkpt lat="50.307728117331862" lon="6.389124635607004">
        <ele>587.01999999999998</ele>
        <time>2020-08-14T12:57:44Z</time>
      </trkpt>
      <trkpt lat="50.307746389880776" lon="6.38911658897996">
        <ele>587.13999999999999</ele>
        <time>2020-08-14T12:58:06Z</time>
      </trkpt>
      <trkpt lat="50.307757956907153" lon="6.389133771881461">
        <ele>587.26999999999998</ele>
        <time>2020-08-14T12:58:32Z</time>
      </trkpt>
      <trkpt lat="50.307781174778938" lon="6.389172999188304">
        <ele>587.35000000000002</ele>
        <time>2020-08-14T12:58:48Z</time>
      </trkpt>
      <trkpt lat="50.307781342417002" lon="6.389129245653749">
        <ele>587.41999999999996</ele>
        <time>2020-08-14T12:59:05Z</time>
      </trkpt>
      <trkpt lat="50.30775485560298" lon="6.389105189591646">
        <ele>588.47000000000003</ele>
        <time>2020-08-14T12:59:29Z</time>
      </trkpt>
      <trkpt lat="50.307764746248722" lon="6.389169311150909">
        <ele>588.54999999999995</ele>
        <time>2020-08-14T12:59:53Z</time>
      </trkpt>
      <trkpt lat="50.307745467871428" lon="6.38916595838964">
        <ele>588.64999999999998</ele>
        <time>2020-08-14T13:00:19Z</time>
      </trkpt>
      <trkpt lat="50.307767679914832" lon="6.389199569821358">
        <ele>588.72000000000003</ele>
        <time>2020-08-14T13:00:39Z</time>
      </trkpt>
      <trkpt lat="50.307768182829022" lon="6.389207951724529">
        <ele>588.73000000000002</ele>
        <time>2020-08-14T13:00:40Z</time>
      </trkpt>
      <trkpt lat="50.307733397930861" lon="6.389251705259085">
        <ele>588.74000000000001</ele>
        <time>2020-08-14T13:00:43Z</time>
      </trkpt>
      <trkpt lat="50.307665169239044" lon="6.389252375811338">
        <ele>588.77999999999997</ele>
        <time>2020-08-14T13:00:52Z</time>
      </trkpt>
      <trkpt lat="50.307661229744554" lon="6.389141567051411">
        <ele>588.75</ele>
        <time>2020-08-14T13:00:59Z</time>
      </trkpt>
      <trkpt lat="50.307688973844051" lon="6.388984993100166">
        <ele>588.87</ele>
        <time>2020-08-14T13:01:09Z</time>
      </trkpt>
      <trkpt lat="50.307721244171262" lon="6.388962278142571">
        <ele>588.89999999999998</ele>
        <time>2020-08-14T13:01:13Z</time>
      </trkpt>
      <trkpt lat="50.307783186435699" lon="6.389001086354256">
        <ele>588.98000000000002</ele>
        <time>2020-08-14T13:01:32Z</time>
      </trkpt>
      <trkpt lat="50.307756029069424" lon="6.389027489349246">
        <ele>586.82000000000005</ele>
        <time>2020-08-14T13:02:02Z</time>
      </trkpt>
      <trkpt lat="50.307869436219335" lon="6.389116672798991">
        <ele>590.22000000000003</ele>
        <time>2020-08-14T13:06:14Z</time>
      </trkpt>
      <trkpt lat="50.307869436219335" lon="6.389116672798991">
        <ele>590.22000000000003</ele>
        <time>2020-08-14T13:06:15Z</time>
      </trkpt>
      <trkpt lat="50.307858707383275" lon="6.388907628133893">
        <ele>591.13999999999999</ele>
        <time>2020-08-14T13:10:25Z</time>
      </trkpt>
      <trkpt lat="50.307881506159902" lon="6.389090772718191">
        <ele>591.86000000000001</ele>
        <time>2020-08-14T13:14:10Z</time>
      </trkpt>
      <trkpt lat="50.307811601087451" lon="6.389120612293482">
        <ele>591.98000000000002</ele>
        <time>2020-08-14T13:14:48Z</time>
      </trkpt>
      <trkpt lat="50.307783102616668" lon="6.389116337522864">
        <ele>592.13999999999999</ele>
        <time>2020-08-14T13:15:34Z</time>
      </trkpt>
      <trkpt lat="50.307877650484443" lon="6.389129161834717">
        <ele>592.33000000000004</ele>
        <time>2020-08-14T13:16:31Z</time>
      </trkpt>
      <trkpt lat="50.307918805629015" lon="6.389158498495817">
        <ele>592.34000000000003</ele>
        <time>2020-08-14T13:16:34Z</time>
      </trkpt>
      <trkpt lat="50.307935485616326" lon="6.389119941741228">
        <ele>592.37</ele>
        <time>2020-08-14T13:16:44Z</time>
      </trkpt>
      <trkpt lat="50.307872453704476" lon="6.389027321711183">
        <ele>592.44000000000005</ele>
        <time>2020-08-14T13:17:04Z</time>
      </trkpt>
      <trkpt lat="50.307932971045375" lon="6.389037379994988">
        <ele>592.52999999999997</ele>
        <time>2020-08-14T13:17:31Z</time>
      </trkpt>
      <trkpt lat="50.30805291607976" lon="6.389007205143571">
        <ele>592.61000000000001</ele>
        <time>2020-08-14T13:17:55Z</time>
      </trkpt>
      <trkpt lat="50.307957362383604" lon="6.389192445203662">
        <ele>592.67999999999995</ele>
        <time>2020-08-14T13:18:19Z</time>
      </trkpt>
      <trkpt lat="50.307835573330522" lon="6.389138046652079">
        <ele>592.80999999999995</ele>
        <time>2020-08-14T13:18:55Z</time>
      </trkpt>
      <trkpt lat="50.307825850322843" lon="6.389009468257427">
        <ele>592.88999999999999</ele>
        <time>2020-08-14T13:19:15Z</time>
      </trkpt>
      <trkpt lat="50.30775292776525" lon="6.388935288414359">
        <ele>592.99000000000001</ele>
        <time>2020-08-14T13:19:31Z</time>
      </trkpt>
      <trkpt lat="50.307704899460077" lon="6.388967894017696">
        <ele>593.02999999999997</ele>
        <time>2020-08-14T13:19:37Z</time>
      </trkpt>
      <trkpt lat="50.307655781507492" lon="6.38916545547545">
        <ele>593.13</ele>
        <time>2020-08-14T13:19:49Z</time>
      </trkpt>
      <trkpt lat="50.307706240564585" lon="6.389236617833376">
        <ele>593.15999999999997</ele>
        <time>2020-08-14T13:19:55Z</time>
      </trkpt>
      <trkpt lat="50.307740019634366" lon="6.389204682782292">
        <ele>593.24000000000001</ele>
        <time>2020-08-14T13:20:07Z</time>
      </trkpt>
      <trkpt lat="50.307759130373597" lon="6.389242988079786">
        <ele>593.35000000000002</ele>
        <time>2020-08-14T13:20:29Z</time>
      </trkpt>
      <trkpt lat="50.307787042111158" lon="6.389293447136879">
        <ele>593.47000000000003</ele>
        <time>2020-08-14T13:20:59Z</time>
      </trkpt>
      <trkpt lat="50.307719148695469" lon="6.389195714145899">
        <ele>593.53999999999996</ele>
        <time>2020-08-14T13:21:16Z</time>
      </trkpt>
      <trkpt lat="50.307736163958907" lon="6.389178615063429">
        <ele>593.58000000000004</ele>
        <time>2020-08-14T13:21:30Z</time>
      </trkpt>
      <trkpt lat="50.307749742642045" lon="6.389136537909508">
        <ele>593.67999999999995</ele>
        <time>2020-08-14T13:21:53Z</time>
      </trkpt>
      <trkpt lat="50.307735409587622" lon="6.389122540131211">
        <ele>593.76999999999998</ele>
        <time>2020-08-14T13:22:17Z</time>
      </trkpt>
      <trkpt lat="50.307712024077773" lon="6.389145338907838">
        <ele>593.87</ele>
        <time>2020-08-14T13:22:39Z</time>
      </trkpt>
      <trkpt lat="50.307728117331862" lon="6.389174005016685">
        <ele>593.95000000000005</ele>
        <time>2020-08-14T13:22:59Z</time>
      </trkpt>
      <trkpt lat="50.30774069018662" lon="6.389157408848405">
        <ele>594.05999999999995</ele>
        <time>2020-08-14T13:23:25Z</time>
      </trkpt>
      <trkpt lat="50.307748736813664" lon="6.389210131019354">
        <ele>594.13</ele>
        <time>2020-08-14T13:23:42Z</time>
      </trkpt>
      <trkpt lat="50.307760303840041" lon="6.389233348891139">
        <ele>594.95000000000005</ele>
        <time>2020-08-14T13:23:48Z</time>
      </trkpt>
      <trkpt lat="50.307773882523179" lon="6.389286909252405">
        <ele>595</ele>
        <time>2020-08-14T13:24:05Z</time>
      </trkpt>
      <trkpt lat="50.307761644944549" lon="6.389286322519183">
        <ele>596.17999999999995</ele>
        <time>2020-08-14T13:24:29Z</time>
      </trkpt>
      <trkpt lat="50.307768434286118" lon="6.389283388853073">
        <ele>596.28999999999996</ele>
        <time>2020-08-14T13:24:56Z</time>
      </trkpt>
      <trkpt lat="50.307750916108489" lon="6.389264445751905">
        <ele>596.38</ele>
        <time>2020-08-14T13:25:19Z</time>
      </trkpt>
      <trkpt lat="50.307742115110159" lon="6.389267798513174">
        <ele>596.46000000000004</ele>
        <time>2020-08-14T13:25:47Z</time>
      </trkpt>
      <trkpt lat="50.307728871703148" lon="6.389276767149568">
        <ele>596.49000000000001</ele>
        <time>2020-08-14T13:25:58Z</time>
      </trkpt>
      <trkpt lat="50.307577578350902" lon="6.389255225658417">
        <ele>596.51999999999998</ele>
        <time>2020-08-14T13:26:11Z</time>
      </trkpt>
      <trkpt lat="50.307483449578285" lon="6.389577761292458">
        <ele>596.53999999999996</ele>
        <time>2020-08-14T13:26:28Z</time>
      </trkpt>
      <trkpt lat="50.307436427101493" lon="6.389954527840018">
        <ele>596.54999999999995</ele>
        <time>2020-08-14T13:26:45Z</time>
      </trkpt>
      <trkpt lat="50.307424608618021" lon="6.390257449820638">
        <ele>596.54999999999995</ele>
        <time>2020-08-14T13:26:59Z</time>
      </trkpt>
      <trkpt lat="50.307429889217019" lon="6.390604125335813">
        <ele>596.53999999999996</ele>
        <time>2020-08-14T13:27:15Z</time>
      </trkpt>
      <trkpt lat="50.307392422109842" lon="6.39096949249506">
        <ele>596.52999999999997</ele>
        <time>2020-08-14T13:27:29Z</time>
      </trkpt>
      <trkpt lat="50.307349003851414" lon="6.391294626519084">
        <ele>596.50999999999999</ele>
        <time>2020-08-14T13:27:42Z</time>
      </trkpt>
      <trkpt lat="50.30731606297195" lon="6.391664352267981">
        <ele>596.53999999999996</ele>
        <time>2020-08-14T13:27:59Z</time>
      </trkpt>
      <trkpt lat="50.307302735745907" lon="6.391744399443269">
        <ele>596.51999999999998</ele>
        <time>2020-08-14T13:28:04Z</time>
      </trkpt>
      <trkpt lat="50.307284714654088" lon="6.391834085807204">
        <ele>596.54999999999995</ele>
        <time>2020-08-14T13:28:09Z</time>
      </trkpt>
      <trkpt lat="50.307249259203672" lon="6.392117310315371">
        <ele>596.50999999999999</ele>
        <time>2020-08-14T13:28:22Z</time>
      </trkpt>
      <trkpt lat="50.307241715490818" lon="6.392412856221199">
        <ele>596.50999999999999</ele>
        <time>2020-08-14T13:28:35Z</time>
      </trkpt>
      <trkpt lat="50.30719930306077" lon="6.392640173435211">
        <ele>596.53999999999996</ele>
        <time>2020-08-14T13:28:49Z</time>
      </trkpt>
      <trkpt lat="50.307160746306181" lon="6.392727680504322">
        <ele>596.49000000000001</ele>
        <time>2020-08-14T13:28:56Z</time>
      </trkpt>
      <trkpt lat="50.306985732167959" lon="6.392938317731023">
        <ele>596.45000000000005</ele>
        <time>2020-08-14T13:29:11Z</time>
      </trkpt>
      <trkpt lat="50.306944912299514" lon="6.392958518117666">
        <ele>596.45000000000005</ele>
        <time>2020-08-14T13:29:14Z</time>
      </trkpt>
      <trkpt lat="50.306700160726905" lon="6.393045773729682">
        <ele>597.25999999999999</ele>
        <time>2020-08-14T13:29:30Z</time>
      </trkpt>
      <trkpt lat="50.306475274264812" lon="6.39314191415906">
        <ele>597.13999999999999</ele>
        <time>2020-08-14T13:29:47Z</time>
      </trkpt>
      <trkpt lat="50.306257763877511" lon="6.39314484782517">
        <ele>597.15999999999997</ele>
        <time>2020-08-14T13:30:04Z</time>
      </trkpt>
      <trkpt lat="50.30616195872426" lon="6.392874866724014">
        <ele>597.26999999999998</ele>
        <time>2020-08-14T13:30:20Z</time>
      </trkpt>
      <trkpt lat="50.306122144684196" lon="6.392743187025189">
        <ele>593.57000000000005</ele>
        <time>2020-08-14T13:30:27Z</time>
      </trkpt>
      <trkpt lat="50.306110410019755" lon="6.39270069077611">
        <ele>596.21000000000004</ele>
        <time>2020-08-14T13:30:29Z</time>
      </trkpt>
      <trkpt lat="50.306086605414748" lon="6.392645370215178">
        <ele>596.21000000000004</ele>
        <time>2020-08-14T13:30:32Z</time>
      </trkpt>
      <trkpt lat="50.305970013141632" lon="6.392283858731389">
        <ele>593.73000000000002</ele>
        <time>2020-08-14T13:30:49Z</time>
      </trkpt>
      <trkpt lat="50.305965738371015" lon="6.392260389402509">
        <ele>593.73000000000002</ele>
        <time>2020-08-14T13:30:50Z</time>
      </trkpt>
      <trkpt lat="50.305856103077531" lon="6.391912456601858">
        <ele>593.76999999999998</ele>
        <time>2020-08-14T13:31:06Z</time>
      </trkpt>
      <trkpt lat="50.305754682049155" lon="6.391585394740105">
        <ele>593.03999999999996</ele>
        <time>2020-08-14T13:31:22Z</time>
      </trkpt>
      <trkpt lat="50.305660972371697" lon="6.391291944310069">
        <ele>591.11000000000001</ele>
        <time>2020-08-14T13:31:37Z</time>
      </trkpt>
      <trkpt lat="50.305577991530299" lon="6.391025399789214">
        <ele>591.21000000000004</ele>
        <time>2020-08-14T13:31:52Z</time>
      </trkpt>
      <trkpt lat="50.305567933246493" lon="6.390970079228282">
        <ele>589.27999999999997</ele>
        <time>2020-08-14T13:31:55Z</time>
      </trkpt>
      <trkpt lat="50.305550331249833" lon="6.390903443098068">
        <ele>592.03999999999996</ele>
        <time>2020-08-14T13:31:58Z</time>
      </trkpt>
      <trkpt lat="50.305532561615109" lon="6.390829849988222">
        <ele>585.84000000000003</ele>
        <time>2020-08-14T13:32:02Z</time>
      </trkpt>
      <trkpt lat="50.30552577227354" lon="6.390804201364517">
        <ele>590.39999999999998</ele>
        <time>2020-08-14T13:32:03Z</time>
      </trkpt>
      <trkpt lat="50.305486796423793" lon="6.390692219138145">
        <ele>593.16999999999996</ele>
        <time>2020-08-14T13:32:08Z</time>
      </trkpt>
      <trkpt lat="50.305454693734646" lon="6.39060496352613">
        <ele>590.71000000000004</ele>
        <time>2020-08-14T13:32:12Z</time>
      </trkpt>
      <trkpt lat="50.305356038734317" lon="6.390305394306779">
        <ele>590.82000000000005</ele>
        <time>2020-08-14T13:32:26Z</time>
      </trkpt>
      <trkpt lat="50.305258641019464" lon="6.390010518953204">
        <ele>590.03999999999996</ele>
        <time>2020-08-14T13:32:42Z</time>
      </trkpt>
      <trkpt lat="50.305158058181405" lon="6.389670632779598">
        <ele>590.05999999999995</ele>
        <time>2020-08-14T13:32:57Z</time>
      </trkpt>
      <trkpt lat="50.30508547089994" lon="6.389286238700151">
        <ele>589.00999999999999</ele>
        <time>2020-08-14T13:33:14Z</time>
      </trkpt>
      <trkpt lat="50.305044902488589" lon="6.388952471315861">
        <ele>589.01999999999998</ele>
        <time>2020-08-14T13:33:29Z</time>
      </trkpt>
      <trkpt lat="50.305013470351696" lon="6.388521809130907">
        <ele>589.04999999999995</ele>
        <time>2020-08-14T13:33:49Z</time>
      </trkpt>
      <trkpt lat="50.305025288835168" lon="6.388168847188354">
        <ele>589.19000000000005</ele>
        <time>2020-08-14T13:34:05Z</time>
      </trkpt>
      <trkpt lat="50.305045573040843" lon="6.387874726206064">
        <ele>589.22000000000003</ele>
        <time>2020-08-14T13:34:19Z</time>
      </trkpt>
      <trkpt lat="50.304983127862215" lon="6.387562416493893">
        <ele>590.13</ele>
        <time>2020-08-14T13:34:33Z</time>
      </trkpt>
      <trkpt lat="50.304915737360716" lon="6.387262931093574">
        <ele>590.08000000000004</ele>
        <time>2020-08-14T13:34:47Z</time>
      </trkpt>
      <trkpt lat="50.304831499233842" lon="6.386946178972721">
        <ele>590.02999999999997</ele>
        <time>2020-08-14T13:35:03Z</time>
      </trkpt>
      <trkpt lat="50.304690347984433" lon="6.386451059952378">
        <ele>590.10000000000002</ele>
        <time>2020-08-14T13:35:26Z</time>
      </trkpt>
      <trkpt lat="50.304642152041197" lon="6.386194238439202">
        <ele>587.74000000000001</ele>
        <time>2020-08-14T13:35:38Z</time>
      </trkpt>
      <trkpt lat="50.304539641365409" lon="6.385799366980791">
        <ele>587.79999999999995</ele>
        <time>2020-08-14T13:35:58Z</time>
      </trkpt>
      <trkpt lat="50.304438807070255" lon="6.385421929880977">
        <ele>587.75</ele>
        <time>2020-08-14T13:36:17Z</time>
      </trkpt>
      <trkpt lat="50.304398657754064" lon="6.385087072849274">
        <ele>587.04999999999995</ele>
        <time>2020-08-14T13:36:32Z</time>
      </trkpt>
      <trkpt lat="50.304398406296968" lon="6.384746767580509">
        <ele>585.88999999999999</ele>
        <time>2020-08-14T13:36:47Z</time>
      </trkpt>
      <trkpt lat="50.304391700774431" lon="6.384493634104729">
        <ele>583.70000000000005</ele>
        <time>2020-08-14T13:36:58Z</time>
      </trkpt>
      <trkpt lat="50.304394382983446" lon="6.384034054353833">
        <ele>581.52999999999997</ele>
        <time>2020-08-14T13:37:18Z</time>
      </trkpt>
      <trkpt lat="50.304394047707319" lon="6.38359216041863">
        <ele>581.59000000000003</ele>
        <time>2020-08-14T13:37:38Z</time>
      </trkpt>
      <trkpt lat="50.304383737966418" lon="6.383203491568565">
        <ele>579.38999999999999</ele>
        <time>2020-08-14T13:37:55Z</time>
      </trkpt>
      <trkpt lat="50.304362280294299" lon="6.382884727790952">
        <ele>577.85000000000002</ele>
        <time>2020-08-14T13:38:10Z</time>
      </trkpt>
      <trkpt lat="50.304360939189792" lon="6.382484911009669">
        <ele>576.98000000000002</ele>
        <time>2020-08-14T13:38:28Z</time>
      </trkpt>
      <trkpt lat="50.304349791258574" lon="6.382164470851421">
        <ele>575.29999999999995</ele>
        <time>2020-08-14T13:38:45Z</time>
      </trkpt>
      <trkpt lat="50.304334871470928" lon="6.381857777014375">
        <ele>572.90999999999997</ele>
        <time>2020-08-14T13:39:02Z</time>
      </trkpt>
      <trkpt lat="50.304326741024852" lon="6.381724253296852">
        <ele>567.28999999999996</ele>
        <time>2020-08-14T13:39:08Z</time>
      </trkpt>
      <trkpt lat="50.304323974996805" lon="6.381696844473481">
        <ele>572.37</ele>
        <time>2020-08-14T13:39:09Z</time>
      </trkpt>
      <trkpt lat="50.304320370778441" lon="6.381527530029416">
        <ele>566.28999999999996</ele>
        <time>2020-08-14T13:39:16Z</time>
      </trkpt>
      <trkpt lat="50.304319281131029" lon="6.381500288844109">
        <ele>572.19000000000005</ele>
        <time>2020-08-14T13:39:17Z</time>
      </trkpt>
      <trkpt lat="50.304317772388458" lon="6.38142753392458">
        <ele>569.88</ele>
        <time>2020-08-14T13:39:20Z</time>
      </trkpt>
      <trkpt lat="50.304309641942382" lon="6.381109356880188">
        <ele>568.03999999999996</ele>
        <time>2020-08-14T13:39:35Z</time>
      </trkpt>
      <trkpt lat="50.304306289181113" lon="6.380722783505917">
        <ele>566.21000000000004</ele>
        <time>2020-08-14T13:39:46Z</time>
      </trkpt>
      <trkpt lat="50.304413745179772" lon="6.38013169169426">
        <ele>563.70000000000005</ele>
        <time>2020-08-14T13:39:58Z</time>
      </trkpt>
      <trkpt lat="50.30450401827693" lon="6.379606062546372">
        <ele>561.01999999999998</ele>
        <time>2020-08-14T13:40:10Z</time>
      </trkpt>
      <trkpt lat="50.30450745485723" lon="6.379083031788468">
        <ele>557.48000000000002</ele>
        <time>2020-08-14T13:40:20Z</time>
      </trkpt>
      <trkpt lat="50.30451281927526" lon="6.378430332988501">
        <ele>554.21000000000004</ele>
        <time>2020-08-14T13:40:33Z</time>
      </trkpt>
      <trkpt lat="50.30454165302217" lon="6.3782490324229">
        <ele>553.36000000000001</ele>
        <time>2020-08-14T13:40:38Z</time>
      </trkpt>
      <trkpt lat="50.304666459560394" lon="6.377957174554467">
        <ele>550.66999999999996</ele>
        <time>2020-08-14T13:40:48Z</time>
      </trkpt>
      <trkpt lat="50.304630668833852" lon="6.377202635630965">
        <ele>548.39999999999998</ele>
        <time>2020-08-14T13:41:01Z</time>
      </trkpt>
      <trkpt lat="50.304598733782768" lon="6.376479780301452">
        <ele>545.71000000000004</ele>
        <time>2020-08-14T13:41:11Z</time>
      </trkpt>
      <trkpt lat="50.30453335493803" lon="6.375896483659744">
        <ele>543.12</ele>
        <time>2020-08-14T13:41:21Z</time>
      </trkpt>
      <trkpt lat="50.304479962214828" lon="6.375557770952582">
        <ele>543.71000000000004</ele>
        <time>2020-08-14T13:42:34Z</time>
      </trkpt>
      <trkpt lat="50.304471747949719" lon="6.37564904987812">
        <ele>545.48000000000002</ele>
        <time>2020-08-14T13:42:38Z</time>
      </trkpt>
      <trkpt lat="50.304440651088953" lon="6.375759607180953">
        <ele>545.46000000000004</ele>
        <time>2020-08-14T13:42:44Z</time>
      </trkpt>
      <trkpt lat="50.304297152906656" lon="6.375717194750905">
        <ele>545.38999999999999</ele>
        <time>2020-08-14T13:42:57Z</time>
      </trkpt>
      <trkpt lat="50.304121635854244" lon="6.375545114278793">
        <ele>546.90999999999997</ele>
        <time>2020-08-14T13:43:11Z</time>
      </trkpt>
      <trkpt lat="50.30405449680984" lon="6.375481160357595">
        <ele>547.82000000000005</ele>
        <time>2020-08-14T13:43:18Z</time>
      </trkpt>
      <trkpt lat="50.303990123793483" lon="6.375365490093827">
        <ele>548.67999999999995</ele>
        <time>2020-08-14T13:43:26Z</time>
      </trkpt>
      <trkpt lat="50.303974701091647" lon="6.37489358894527">
        <ele>549.40999999999997</ele>
        <time>2020-08-14T13:43:40Z</time>
      </trkpt>
      <trkpt lat="50.303997667506337" lon="6.374724609777331">
        <ele>550.54999999999995</ele>
        <time>2020-08-14T13:43:42Z</time>
      </trkpt>
      <trkpt lat="50.304032955318689" lon="6.374557893723249">
        <ele>551.77999999999997</ele>
        <time>2020-08-14T13:43:44Z</time>
      </trkpt>
      <trkpt lat="50.304140830412507" lon="6.374140558764339">
        <ele>553.75</ele>
        <time>2020-08-14T13:43:49Z</time>
      </trkpt>
      <trkpt lat="50.30420109629631" lon="6.373916426673532">
        <ele>555.41999999999996</ele>
        <time>2020-08-14T13:43:52Z</time>
      </trkpt>
      <trkpt lat="50.30435155145824" lon="6.373365065082908">
        <ele>557.00999999999999</ele>
        <time>2020-08-14T13:44:03Z</time>
      </trkpt>
      <trkpt lat="50.304502509534359" lon="6.372680934146047">
        <ele>557.79999999999995</ele>
        <time>2020-08-14T13:44:15Z</time>
      </trkpt>
      <trkpt lat="50.304568810388446" lon="6.372211212292314">
        <ele>554.94000000000005</ele>
        <time>2020-08-14T13:44:20Z</time>
      </trkpt>
      <trkpt lat="50.304645001888275" lon="6.371712740510702">
        <ele>554.12</ele>
        <time>2020-08-14T13:44:25Z</time>
      </trkpt>
      <trkpt lat="50.304717589169741" lon="6.371329184621573">
        <ele>552.80999999999995</ele>
        <time>2020-08-14T13:44:29Z</time>
      </trkpt>
      <trkpt lat="50.304980278015137" lon="6.369793452322483">
        <ele>549.95000000000005</ele>
        <time>2020-08-14T13:44:45Z</time>
      </trkpt>
      <trkpt lat="50.304993605241179" lon="6.369697479531169">
        <ele>549.10000000000002</ele>
        <time>2020-08-14T13:44:46Z</time>
      </trkpt>
      <trkpt lat="50.304980697110295" lon="6.369236307218671">
        <ele>548.03999999999996</ele>
        <time>2020-08-14T13:44:51Z</time>
      </trkpt>
      <trkpt lat="50.304539892822504" lon="6.367872320115566">
        <ele>550.60000000000002</ele>
        <time>2020-08-14T13:45:07Z</time>
      </trkpt>
      <trkpt lat="50.304514328017831" lon="6.367784393951297">
        <ele>550.61000000000001</ele>
        <time>2020-08-14T13:45:08Z</time>
      </trkpt>
      <trkpt lat="50.30420402996242" lon="6.366486707702279">
        <ele>551.54999999999995</ele>
        <time>2020-08-14T13:45:22Z</time>
      </trkpt>
      <trkpt lat="50.304030105471611" lon="6.365736359730363">
        <ele>553.79999999999995</ele>
        <time>2020-08-14T13:45:30Z</time>
      </trkpt>
      <trkpt lat="50.303975958377123" lon="6.365560172125697">
        <ele>554.80999999999995</ele>
        <time>2020-08-14T13:45:32Z</time>
      </trkpt>
      <trkpt lat="50.30382432974875" lon="6.365263033658266">
        <ele>556.70000000000005</ele>
        <time>2020-08-14T13:45:36Z</time>
      </trkpt>
      <trkpt lat="50.303462985903025" lon="6.36504577472806">
        <ele>559.12</ele>
        <time>2020-08-14T13:45:45Z</time>
      </trkpt>
      <trkpt lat="50.303443539887667" lon="6.365089444443584">
        <ele>559.80999999999995</ele>
        <time>2020-08-14T13:45:58Z</time>
      </trkpt>
      <trkpt lat="50.303358463570476" lon="6.365529661998153">
        <ele>559.74000000000001</ele>
        <time>2020-08-14T13:46:18Z</time>
      </trkpt>
      <trkpt lat="50.303294509649277" lon="6.365863010287285">
        <ele>560.86000000000001</ele>
        <time>2020-08-14T13:46:32Z</time>
      </trkpt>
      <trkpt lat="50.303235333412886" lon="6.366254528984428">
        <ele>560.87</ele>
        <time>2020-08-14T13:46:48Z</time>
      </trkpt>
      <trkpt lat="50.303201302886009" lon="6.366443289443851">
        <ele>557.74000000000001</ele>
        <time>2020-08-14T13:46:56Z</time>
      </trkpt>
      <trkpt lat="50.303197531029582" lon="6.36646575294435">
        <ele>557.75</ele>
        <time>2020-08-14T13:46:57Z</time>
      </trkpt>
      <trkpt lat="50.303188310936093" lon="6.366509003564715">
        <ele>560.38</ele>
        <time>2020-08-14T13:46:59Z</time>
      </trkpt>
      <trkpt lat="50.303104743361473" lon="6.366902617737651">
        <ele>562.40999999999997</ele>
        <time>2020-08-14T13:47:16Z</time>
      </trkpt>
      <trkpt lat="50.303033413365483" lon="6.367341494187713">
        <ele>562.37</ele>
        <time>2020-08-14T13:47:34Z</time>
      </trkpt>
      <trkpt lat="50.302963256835938" lon="6.367731923237443">
        <ele>562.40999999999997</ele>
        <time>2020-08-14T13:47:51Z</time>
      </trkpt>
      <trkpt lat="50.302952695637941" lon="6.367747513577342">
        <ele>562.40999999999997</ele>
        <time>2020-08-14T13:47:52Z</time>
      </trkpt>
      <trkpt lat="50.302909947931767" lon="6.36777626350522">
        <ele>560.05999999999995</ele>
        <time>2020-08-14T13:47:55Z</time>
      </trkpt>
      <trkpt lat="50.302670560777187" lon="6.367847928777337">
        <ele>557.11000000000001</ele>
        <time>2020-08-14T13:48:11Z</time>
      </trkpt>
      <trkpt lat="50.302431927993894" lon="6.367903333157301">
        <ele>554.57000000000005</ele>
        <time>2020-08-14T13:48:27Z</time>
      </trkpt>
      <trkpt lat="50.302257752045989" lon="6.367939375340939">
        <ele>550.76999999999998</ele>
        <time>2020-08-14T13:48:39Z</time>
      </trkpt>
      <trkpt lat="50.302168233320117" lon="6.367965862154961">
        <ele>547.07000000000005</ele>
        <time>2020-08-14T13:48:45Z</time>
      </trkpt>
      <trkpt lat="50.302152894437313" lon="6.36796829290688">
        <ele>547.07000000000005</ele>
        <time>2020-08-14T13:48:46Z</time>
      </trkpt>
      <trkpt lat="50.301896072924137" lon="6.367984972894192">
        <ele>547.20000000000005</ele>
        <time>2020-08-14T13:49:03Z</time>
      </trkpt>
      <trkpt lat="50.301655260846019" lon="6.368050938472152">
        <ele>545.28999999999996</ele>
        <time>2020-08-14T13:49:18Z</time>
      </trkpt>
      <trkpt lat="50.301521653309464" lon="6.367979776114225">
        <ele>542.79999999999995</ele>
        <time>2020-08-14T13:49:30Z</time>
      </trkpt>
      <trkpt lat="50.30151067301631" lon="6.367857903242111">
        <ele>540.22000000000003</ele>
        <time>2020-08-14T13:49:37Z</time>
      </trkpt>
      <trkpt lat="50.301504554226995" lon="6.367598315700889">
        <ele>540.27999999999997</ele>
        <time>2020-08-14T13:49:49Z</time>
      </trkpt>
      <trkpt lat="50.301514193415642" lon="6.367223560810089">
        <ele>538.50999999999999</ele>
        <time>2020-08-14T13:50:03Z</time>
      </trkpt>
      <trkpt lat="50.301527688279748" lon="6.366807566955686">
        <ele>535.87</ele>
        <time>2020-08-14T13:50:20Z</time>
      </trkpt>
      <trkpt lat="50.301527269184589" lon="6.366417976096273">
        <ele>534.20000000000005</ele>
        <time>2020-08-14T13:50:36Z</time>
      </trkpt>
      <trkpt lat="50.301523078233004" lon="6.366372210904956">
        <ele>533.26999999999998</ele>
        <time>2020-08-14T13:50:38Z</time>
      </trkpt>
      <trkpt lat="50.301525173708797" lon="6.365999132394791">
        <ele>530.63</ele>
        <time>2020-08-14T13:50:53Z</time>
      </trkpt>
      <trkpt lat="50.301566915586591" lon="6.365774245932698">
        <ele>529.76999999999998</ele>
        <time>2020-08-14T13:51:03Z</time>
      </trkpt>
      <trkpt lat="50.301638077944517" lon="6.365377111360431">
        <ele>528.25999999999999</ele>
        <time>2020-08-14T13:51:19Z</time>
      </trkpt>
      <trkpt lat="50.301753412932158" lon="6.365092461928725">
        <ele>527.45000000000005</ele>
        <time>2020-08-14T13:51:34Z</time>
      </trkpt>
      <trkpt lat="50.301906801760197" lon="6.364822816103697">
        <ele>526.61000000000001</ele>
        <time>2020-08-14T13:51:50Z</time>
      </trkpt>
      <trkpt lat="50.301933456212282" lon="6.364777386188507">
        <ele>525.86000000000001</ele>
        <time>2020-08-14T13:51:53Z</time>
      </trkpt>
      <trkpt lat="50.30194996856153" lon="6.364753246307373">
        <ele>525.84000000000003</ele>
        <time>2020-08-14T13:51:55Z</time>
      </trkpt>
      <trkpt lat="50.302010821178555" lon="6.364667750895023">
        <ele>525.83000000000004</ele>
        <time>2020-08-14T13:52:00Z</time>
      </trkpt>
      <trkpt lat="50.302180470898747" lon="6.364359296858311">
        <ele>524.99000000000001</ele>
        <time>2020-08-14T13:52:16Z</time>
      </trkpt>
      <trkpt lat="50.302340062335134" lon="6.364191994071007">
        <ele>524.86000000000001</ele>
        <time>2020-08-14T13:52:31Z</time>
      </trkpt>
      <trkpt lat="50.302419187501073" lon="6.364134578034282">
        <ele>521.51999999999998</ele>
        <time>2020-08-14T13:52:37Z</time>
      </trkpt>
      <trkpt lat="50.302430922165513" lon="6.364120412617922">
        <ele>525.16999999999996</ele>
        <time>2020-08-14T13:52:38Z</time>
      </trkpt>
      <trkpt lat="50.302469311282039" lon="6.36407732963562">
        <ele>525.13</ele>
        <time>2020-08-14T13:52:42Z</time>
      </trkpt>
      <trkpt lat="50.302490517497063" lon="6.364049585536122">
        <ele>522.84000000000003</ele>
        <time>2020-08-14T13:52:44Z</time>
      </trkpt>
      <trkpt lat="50.302534019574523" lon="6.363965179771185">
        <ele>521.59000000000003</ele>
        <time>2020-08-14T13:52:49Z</time>
      </trkpt>
      <trkpt lat="50.302591351792216" lon="6.36383886449039">
        <ele>521.44000000000005</ele>
        <time>2020-08-14T13:52:57Z</time>
      </trkpt>
      <trkpt lat="50.302635272964835" lon="6.363620683550835">
        <ele>519.64999999999998</ele>
        <time>2020-08-14T13:53:10Z</time>
      </trkpt>
      <trkpt lat="50.302854795008898" lon="6.363400323316455">
        <ele>516.76999999999998</ele>
        <time>2020-08-14T13:53:30Z</time>
      </trkpt>
      <trkpt lat="50.30300784856081" lon="6.363060437142849">
        <ele>513.13999999999999</ele>
        <time>2020-08-14T13:53:52Z</time>
      </trkpt>
      <trkpt lat="50.303190154954791" lon="6.36274628341198">
        <ele>510.12</ele>
        <time>2020-08-14T13:54:16Z</time>
      </trkpt>
      <trkpt lat="50.303374724462628" lon="6.362544782459736">
        <ele>507.19</ele>
        <time>2020-08-14T13:54:39Z</time>
      </trkpt>
      <trkpt lat="50.303522665053606" lon="6.362564731389284">
        <ele>503.48000000000002</ele>
        <time>2020-08-14T13:54:56Z</time>
      </trkpt>
      <trkpt lat="50.303774541243911" lon="6.362572107464075">
        <ele>500.47000000000003</ele>
        <time>2020-08-14T13:55:14Z</time>
      </trkpt>
      <trkpt lat="50.303934970870614" lon="6.362572191283107">
        <ele>495.86000000000001</ele>
        <time>2020-08-14T13:55:26Z</time>
      </trkpt>
      <trkpt lat="50.303946705535054" lon="6.362571017816663">
        <ele>495.81999999999999</ele>
        <time>2020-08-14T13:55:27Z</time>
      </trkpt>
      <trkpt lat="50.303959529846907" lon="6.36257529258728">
        <ele>498.81999999999999</ele>
        <time>2020-08-14T13:55:28Z</time>
      </trkpt>
      <trkpt lat="50.303970593959093" lon="6.362573783844709">
        <ele>498.79000000000002</ele>
        <time>2020-08-14T13:55:29Z</time>
      </trkpt>
      <trkpt lat="50.304033793509007" lon="6.362568587064743">
        <ele>498.63999999999999</ele>
        <time>2020-08-14T13:55:34Z</time>
      </trkpt>
      <trkpt lat="50.304198414087296" lon="6.362612843513489">
        <ele>496.44</ele>
        <time>2020-08-14T13:55:43Z</time>
      </trkpt>
      <trkpt lat="50.304248705506325" lon="6.362643521279097">
        <ele>496.32999999999998</ele>
        <time>2020-08-14T13:55:46Z</time>
      </trkpt>
      <trkpt lat="50.304323304444551" lon="6.362842507660389">
        <ele>492.79000000000002</ele>
        <time>2020-08-14T13:55:56Z</time>
      </trkpt>
      <trkpt lat="50.304337721318007" lon="6.362893218174577">
        <ele>496.58999999999997</ele>
        <time>2020-08-14T13:55:59Z</time>
      </trkpt>
      <trkpt lat="50.304345181211829" lon="6.362908137962222">
        <ele>494.11000000000001</ele>
        <time>2020-08-14T13:56:00Z</time>
      </trkpt>
      <trkpt lat="50.304347947239876" lon="6.362945940345526">
        <ele>494.04000000000002</ele>
        <time>2020-08-14T13:56:02Z</time>
      </trkpt>
      <trkpt lat="50.304391030222178" lon="6.36307368054986">
        <ele>493.80000000000001</ele>
        <time>2020-08-14T13:56:09Z</time>
      </trkpt>
      <trkpt lat="50.304435370489955" lon="6.363145681098104">
        <ele>495.97000000000003</ele>
        <time>2020-08-14T13:56:13Z</time>
      </trkpt>
      <trkpt lat="50.304455487057567" lon="6.363361934199929">
        <ele>495.67000000000002</ele>
        <time>2020-08-14T13:56:22Z</time>
      </trkpt>
      <trkpt lat="50.304594375193119" lon="6.363794691860676">
        <ele>495.94</ele>
        <time>2020-08-14T13:56:38Z</time>
      </trkpt>
      <trkpt lat="50.304668135941029" lon="6.363851940259337">
        <ele>495.77999999999997</ele>
        <time>2020-08-14T13:56:43Z</time>
      </trkpt>
      <trkpt lat="50.30479084700346" lon="6.363831404596567">
        <ele>496.50999999999999</ele>
        <time>2020-08-14T13:56:51Z</time>
      </trkpt>
      <trkpt lat="50.304910708218813" lon="6.36364633217454">
        <ele>495.07999999999998</ele>
        <time>2020-08-14T13:57:02Z</time>
      </trkpt>
      <trkpt lat="50.304929986596107" lon="6.363607021048665">
        <ele>495.01999999999998</ele>
        <time>2020-08-14T13:57:04Z</time>
      </trkpt>
      <trkpt lat="50.304994946345687" lon="6.363490512594581">
        <ele>493.97000000000003</ele>
        <time>2020-08-14T13:57:13Z</time>
      </trkpt>
      <trkpt lat="50.305028054863214" lon="6.363414572551847">
        <ele>493.85000000000002</ele>
        <time>2020-08-14T13:57:18Z</time>
      </trkpt>
      <trkpt lat="50.305066527798772" lon="6.363375596702099">
        <ele>492.64999999999998</ele>
        <time>2020-08-14T13:57:21Z</time>
      </trkpt>
      <trkpt lat="50.305074658244848" lon="6.363340141251683">
        <ele>492.61000000000001</ele>
        <time>2020-08-14T13:57:23Z</time>
      </trkpt>
      <trkpt lat="50.305136600509286" lon="6.363228829577565">
        <ele>491.60000000000002</ele>
        <time>2020-08-14T13:57:31Z</time>
      </trkpt>
      <trkpt lat="50.305142216384411" lon="6.363152805715799">
        <ele>491.5</ele>
        <time>2020-08-14T13:57:35Z</time>
      </trkpt>
      <trkpt lat="50.305239949375391" lon="6.362941581755877">
        <ele>490.51999999999998</ele>
        <time>2020-08-14T13:57:46Z</time>
      </trkpt>
      <trkpt lat="50.305292755365372" lon="6.362870167940855">
        <ele>485.61000000000001</ele>
        <time>2020-08-14T13:57:50Z</time>
      </trkpt>
      <trkpt lat="50.305308680981398" lon="6.362843429669738">
        <ele>492.13</ele>
        <time>2020-08-14T13:57:52Z</time>
      </trkpt>
      <trkpt lat="50.305317146703601" lon="6.36283035390079">
        <ele>489.72000000000003</ele>
        <time>2020-08-14T13:57:53Z</time>
      </trkpt>
      <trkpt lat="50.305356625467539" lon="6.362766651436687">
        <ele>487.56999999999999</ele>
        <time>2020-08-14T13:57:57Z</time>
      </trkpt>
      <trkpt lat="50.305470451712608" lon="6.362610831856728">
        <ele>490.29000000000002</ele>
        <time>2020-08-14T13:58:07Z</time>
      </trkpt>
      <trkpt lat="50.305644208565354" lon="6.362363649532199">
        <ele>490.10000000000002</ele>
        <time>2020-08-14T13:58:20Z</time>
      </trkpt>
      <trkpt lat="50.305697098374367" lon="6.36228259652853">
        <ele>490.04000000000002</ele>
        <time>2020-08-14T13:58:24Z</time>
      </trkpt>
      <trkpt lat="50.305744372308254" lon="6.362186707556248">
        <ele>487.69999999999999</ele>
        <time>2020-08-14T13:58:29Z</time>
      </trkpt>
      <trkpt lat="50.305751580744982" lon="6.362158879637718">
        <ele>487.69</ele>
        <time>2020-08-14T13:58:30Z</time>
      </trkpt>
      <trkpt lat="50.305949477478862" lon="6.361963748931885">
        <ele>486.76999999999998</ele>
        <time>2020-08-14T13:58:42Z</time>
      </trkpt>
      <trkpt lat="50.306090544909239" lon="6.361699048429728">
        <ele>486.69</ele>
        <time>2020-08-14T13:58:54Z</time>
      </trkpt>
      <trkpt lat="50.306150643154979" lon="6.361608440056443">
        <ele>484.19</ele>
        <time>2020-08-14T13:58:59Z</time>
      </trkpt>
      <trkpt lat="50.306175369769335" lon="6.361565692350268">
        <ele>486.74000000000001</ele>
        <time>2020-08-14T13:59:01Z</time>
      </trkpt>
      <trkpt lat="50.306214597076178" lon="6.361378105357289">
        <ele>486.69999999999999</ele>
        <time>2020-08-14T13:59:10Z</time>
      </trkpt>
      <trkpt lat="50.306277545168996" lon="6.361165707930923">
        <ele>484.35000000000002</ele>
        <time>2020-08-14T13:59:19Z</time>
      </trkpt>
      <trkpt lat="50.306310737505555" lon="6.361001003533602">
        <ele>483.60000000000002</ele>
        <time>2020-08-14T13:59:25Z</time>
      </trkpt>
      <trkpt lat="50.306401764973998" lon="6.360664889216423">
        <ele>482.69999999999999</ele>
        <time>2020-08-14T13:59:40Z</time>
      </trkpt>
      <trkpt lat="50.306416684761643" lon="6.360599426552653">
        <ele>482.69999999999999</ele>
        <time>2020-08-14T13:59:43Z</time>
      </trkpt>
      <trkpt lat="50.3064517211169" lon="6.360452240332961">
        <ele>482.69</ele>
        <time>2020-08-14T13:59:50Z</time>
      </trkpt>
      <trkpt lat="50.306539395824075" lon="6.360224420204759">
        <ele>482.69999999999999</ele>
        <time>2020-08-14T14:00:02Z</time>
      </trkpt>
      <trkpt lat="50.306571582332253" lon="6.360142193734646">
        <ele>482.69999999999999</ele>
        <time>2020-08-14T14:00:06Z</time>
      </trkpt>
      <trkpt lat="50.306600835174322" lon="6.360068181529641">
        <ele>481.88999999999999</ele>
        <time>2020-08-14T14:00:10Z</time>
      </trkpt>
      <trkpt lat="50.306629920378327" lon="6.35998553596437">
        <ele>481.88999999999999</ele>
        <time>2020-08-14T14:00:14Z</time>
      </trkpt>
      <trkpt lat="50.306741315871477" lon="6.359770288690925">
        <ele>481.88</ele>
        <time>2020-08-14T14:00:27Z</time>
      </trkpt>
      <trkpt lat="50.306792613118887" lon="6.359531404450536">
        <ele>480.98000000000002</ele>
        <time>2020-08-14T14:00:41Z</time>
      </trkpt>
      <trkpt lat="50.30685774050653" lon="6.359306685626507">
        <ele>480.97000000000003</ele>
        <time>2020-08-14T14:00:53Z</time>
      </trkpt>
      <trkpt lat="50.306883808225393" lon="6.359267290681601">
        <ele>480.95999999999998</ele>
        <time>2020-08-14T14:00:56Z</time>
      </trkpt>
      <trkpt lat="50.306936362758279" lon="6.359180035069585">
        <ele>480.95999999999998</ele>
        <time>2020-08-14T14:01:00Z</time>
      </trkpt>
      <trkpt lat="50.307079777121544" lon="6.358932266011834">
        <ele>480.94</ele>
        <time>2020-08-14T14:01:14Z</time>
      </trkpt>
      <trkpt lat="50.307090254500508" lon="6.358921369537711">
        <ele>480.94</ele>
        <time>2020-08-14T14:01:15Z</time>
      </trkpt>
      <trkpt lat="50.307226208969951" lon="6.358752641826868">
        <ele>480.16000000000003</ele>
        <time>2020-08-14T14:01:27Z</time>
      </trkpt>
      <trkpt lat="50.307338358834386" lon="6.358647029846907">
        <ele>480.14999999999998</ele>
        <time>2020-08-14T14:01:35Z</time>
      </trkpt>
      <trkpt lat="50.307439360767603" lon="6.358557343482971">
        <ele>481.44999999999999</ele>
        <time>2020-08-14T14:01:43Z</time>
      </trkpt>
      <trkpt lat="50.307520246133208" lon="6.358516858890653">
        <ele>481.43000000000001</ele>
        <time>2020-08-14T14:01:49Z</time>
      </trkpt>
      <trkpt lat="50.30757405795157" lon="6.358451982960105">
        <ele>481.41000000000003</ele>
        <time>2020-08-14T14:01:54Z</time>
      </trkpt>
      <trkpt lat="50.30765569768846" lon="6.358390208333731">
        <ele>481.38999999999999</ele>
        <time>2020-08-14T14:02:00Z</time>
      </trkpt>
      <trkpt lat="50.307803219184279" lon="6.358293816447258">
        <ele>481.33999999999997</ele>
        <time>2020-08-14T14:02:10Z</time>
      </trkpt>
      <trkpt lat="50.308006396517158" lon="6.358155766502023">
        <ele>481.26999999999998</ele>
        <time>2020-08-14T14:02:25Z</time>
      </trkpt>
      <trkpt lat="50.308199264109135" lon="6.357938759028912">
        <ele>481.44</ele>
        <time>2020-08-14T14:02:40Z</time>
      </trkpt>
      <trkpt lat="50.308221559971571" lon="6.357908248901367">
        <ele>481.43000000000001</ele>
        <time>2020-08-14T14:02:42Z</time>
      </trkpt>
      <trkpt lat="50.308315688744187" lon="6.357744047418237">
        <ele>479.16000000000003</ele>
        <time>2020-08-14T14:02:51Z</time>
      </trkpt>
      <trkpt lat="50.30842280946672" lon="6.357541959732771">
        <ele>477.56999999999999</ele>
        <time>2020-08-14T14:03:03Z</time>
      </trkpt>
      <trkpt lat="50.308439321815968" lon="6.357513042166829">
        <ele>479.69</ele>
        <time>2020-08-14T14:03:05Z</time>
      </trkpt>
      <trkpt lat="50.30847460962832" lon="6.357468785718083">
        <ele>476.06</ele>
        <time>2020-08-14T14:03:08Z</time>
      </trkpt>
      <trkpt lat="50.308521464467049" lon="6.357392845675349">
        <ele>474.82999999999998</ele>
        <time>2020-08-14T14:03:13Z</time>
      </trkpt>
      <trkpt lat="50.308648282662034" lon="6.357187237590551">
        <ele>473.87</ele>
        <time>2020-08-14T14:03:26Z</time>
      </trkpt>
      <trkpt lat="50.308864619582891" lon="6.356954304501414">
        <ele>472.80000000000001</ele>
        <time>2020-08-14T14:03:41Z</time>
      </trkpt>
      <trkpt lat="50.30900183133781" lon="6.356657752767205">
        <ele>473.76999999999998</ele>
        <time>2020-08-14T14:03:55Z</time>
      </trkpt>
      <trkpt lat="50.309092774987221" lon="6.356401098892093">
        <ele>473.74000000000001</ele>
        <time>2020-08-14T14:04:09Z</time>
      </trkpt>
      <trkpt lat="50.309071484953165" lon="6.356369247660041">
        <ele>469.23000000000002</ele>
        <time>2020-08-14T14:04:27Z</time>
      </trkpt>
      <trkpt lat="50.309078190475702" lon="6.356362709775567">
        <ele>469.25999999999999</ele>
        <time>2020-08-14T14:04:28Z</time>
      </trkpt>
      <trkpt lat="50.309085734188557" lon="6.356347035616636">
        <ele>471.63</ele>
        <time>2020-08-14T14:04:30Z</time>
      </trkpt>
      <trkpt lat="50.309224622324109" lon="6.356039922684431">
        <ele>471.63</ele>
        <time>2020-08-14T14:04:43Z</time>
      </trkpt>
      <trkpt lat="50.309474570676684" lon="6.355500547215343">
        <ele>471.62</ele>
        <time>2020-08-14T14:04:50Z</time>
      </trkpt>
      <trkpt lat="50.30953835695982" lon="6.35533575899899">
        <ele>471.58999999999997</ele>
        <time>2020-08-14T14:04:52Z</time>
      </trkpt>
      <trkpt lat="50.309726530686021" lon="6.354704769328237">
        <ele>471.67000000000002</ele>
        <time>2020-08-14T14:04:59Z</time>
      </trkpt>
      <trkpt lat="50.310029871761799" lon="6.35398275218904">
        <ele>471.68000000000001</ele>
        <time>2020-08-14T14:05:07Z</time>
      </trkpt>
      <trkpt lat="50.310112684965134" lon="6.353653511032462">
        <ele>469.29000000000002</ele>
        <time>2020-08-14T14:05:10Z</time>
      </trkpt>
      <trkpt lat="50.310175884515047" lon="6.353336675092578">
        <ele>469.31</ele>
        <time>2020-08-14T14:05:13Z</time>
      </trkpt>
      <trkpt lat="50.310299266129732" lon="6.352806268259883">
        <ele>468.22000000000003</ele>
        <time>2020-08-14T14:05:18Z</time>
      </trkpt>
      <trkpt lat="50.310384007170796" lon="6.35252664797008">
        <ele>468.25</ele>
        <time>2020-08-14T14:05:21Z</time>
      </trkpt>
      <trkpt lat="50.31047553755343" lon="6.352283237501979">
        <ele>468.25999999999999</ele>
        <time>2020-08-14T14:05:24Z</time>
      </trkpt>
      <trkpt lat="50.310550974681973" lon="6.352032367140055">
        <ele>468.26999999999998</ele>
        <time>2020-08-14T14:05:27Z</time>
      </trkpt>
      <trkpt lat="50.310749290511012" lon="6.351583348587155">
        <ele>468.27999999999997</ele>
        <time>2020-08-14T14:05:33Z</time>
      </trkpt>
      <trkpt lat="50.310804108157754" lon="6.351511683315039">
        <ele>468.32999999999998</ele>
        <time>2020-08-14T14:05:42Z</time>
      </trkpt>
      <trkpt lat="50.311295036226511" lon="6.350893266499043">
        <ele>492.81999999999999</ele>
        <time>2020-08-14T14:10:50Z</time>
      </trkpt>
      <trkpt lat="50.311515061184764" lon="6.350752785801888">
        <ele>490.50999999999999</ele>
        <time>2020-08-14T14:11:01Z</time>
      </trkpt>
      <trkpt lat="50.311992997303605" lon="6.350542064756155">
        <ele>469.63</ele>
        <time>2020-08-14T14:14:44Z</time>
      </trkpt>
      <trkpt lat="50.312250824645162" lon="6.350170830264688">
        <ele>468.88999999999999</ele>
        <time>2020-08-14T14:14:54Z</time>
      </trkpt>
      <trkpt lat="50.312384348362684" lon="6.349743604660034">
        <ele>467.51999999999998</ele>
        <time>2020-08-14T14:16:18Z</time>
      </trkpt>
      <trkpt lat="50.312464646995068" lon="6.349327862262726">
        <ele>467.58999999999997</ele>
        <time>2020-08-14T14:16:34Z</time>
      </trkpt>
      <trkpt lat="50.312684671953321" lon="6.34927773848176">
        <ele>467.62</ele>
        <time>2020-08-14T14:16:48Z</time>
      </trkpt>
      <trkpt lat="50.312914671376348" lon="6.34922250173986">
        <ele>467.60000000000002</ele>
        <time>2020-08-14T14:17:01Z</time>
      </trkpt>
      <trkpt lat="50.313049033284187" lon="6.349155614152551">
        <ele>467.57999999999998</ele>
        <time>2020-08-14T14:17:11Z</time>
      </trkpt>
      <trkpt lat="50.31314785592258" lon="6.349115716293454">
        <ele>467.61000000000001</ele>
        <time>2020-08-14T14:17:18Z</time>
      </trkpt>
      <trkpt lat="50.313213402405381" lon="6.349087301641703">
        <ele>467.68000000000001</ele>
        <time>2020-08-14T14:17:22Z</time>
      </trkpt>
      <trkpt lat="50.313427895307541" lon="6.348993675783277">
        <ele>467.69999999999999</ele>
        <time>2020-08-14T14:17:37Z</time>
      </trkpt>
      <trkpt lat="50.313623948022723" lon="6.348892338573933">
        <ele>466.82999999999998</ele>
        <time>2020-08-14T14:17:50Z</time>
      </trkpt>
      <trkpt lat="50.313842296600342" lon="6.34880525059998">
        <ele>465.68000000000001</ele>
        <time>2020-08-14T14:18:04Z</time>
      </trkpt>
      <trkpt lat="50.314050335437059" lon="6.348604587838054">
        <ele>465.69999999999999</ele>
        <time>2020-08-14T14:18:20Z</time>
      </trkpt>
      <trkpt lat="50.31414513476193" lon="6.348393447697163">
        <ele>465.67000000000002</ele>
        <time>2020-08-14T14:18:32Z</time>
      </trkpt>
      <trkpt lat="50.314196599647403" lon="6.348117850720882">
        <ele>465.68000000000001</ele>
        <time>2020-08-14T14:18:46Z</time>
      </trkpt>
      <trkpt lat="50.31418570317328" lon="6.347934454679489">
        <ele>465.69999999999999</ele>
        <time>2020-08-14T14:18:55Z</time>
      </trkpt>
      <trkpt lat="50.314194587990642" lon="6.347867315635085">
        <ele>462.06</ele>
        <time>2020-08-14T14:18:59Z</time>
      </trkpt>
      <trkpt lat="50.314193582162261" lon="6.347852814942598">
        <ele>462.05000000000001</ele>
        <time>2020-08-14T14:19:00Z</time>
      </trkpt>
      <trkpt lat="50.31419693492353" lon="6.347834877669811">
        <ele>466.16000000000003</ele>
        <time>2020-08-14T14:19:01Z</time>
      </trkpt>
      <trkpt lat="50.314200622960925" lon="6.347816102206707">
        <ele>466.14999999999998</ele>
        <time>2020-08-14T14:19:02Z</time>
      </trkpt>
      <trkpt lat="50.314206909388304" lon="6.347777796909213">
        <ele>466.13999999999999</ele>
        <time>2020-08-14T14:19:04Z</time>
      </trkpt>
      <trkpt lat="50.314218560233712" lon="6.347652403637767">
        <ele>466.08999999999997</ele>
        <time>2020-08-14T14:19:10Z</time>
      </trkpt>
      <trkpt lat="50.314228031784296" lon="6.347373453900218">
        <ele>466.04000000000002</ele>
        <time>2020-08-14T14:19:24Z</time>
      </trkpt>
      <trkpt lat="50.31423213891685" lon="6.347356606274843">
        <ele>466.04000000000002</ele>
        <time>2020-08-14T14:19:25Z</time>
      </trkpt>
      <trkpt lat="50.314239095896482" lon="6.347292484715581">
        <ele>466.02999999999997</ele>
        <time>2020-08-14T14:19:28Z</time>
      </trkpt>
      <trkpt lat="50.314228450879455" lon="6.347029712051153">
        <ele>465.94999999999999</ele>
        <time>2020-08-14T14:19:40Z</time>
      </trkpt>
      <trkpt lat="50.314217722043395" lon="6.346939187496901">
        <ele>465.92000000000002</ele>
        <time>2020-08-14T14:19:44Z</time>
      </trkpt>
      <trkpt lat="50.314193414524198" lon="6.346812788397074">
        <ele>465.88999999999999</ele>
        <time>2020-08-14T14:19:48Z</time>
      </trkpt>
      <trkpt lat="50.314227361232042" lon="6.346528809517622">
        <ele>465.77999999999997</ele>
        <time>2020-08-14T14:20:00Z</time>
      </trkpt>
      <trkpt lat="50.314230630174279" lon="6.346482625231147">
        <ele>465.76999999999998</ele>
        <time>2020-08-14T14:20:02Z</time>
      </trkpt>
      <trkpt lat="50.314280921593308" lon="6.346309958025813">
        <ele>463.31</ele>
        <time>2020-08-14T14:20:09Z</time>
      </trkpt>
      <trkpt lat="50.314295925199986" lon="6.346207531169057">
        <ele>463.25</ele>
        <time>2020-08-14T14:20:12Z</time>
      </trkpt>
      <trkpt lat="50.314292069524527" lon="6.346102589741349">
        <ele>463.23000000000002</ele>
        <time>2020-08-14T14:20:15Z</time>
      </trkpt>
      <trkpt lat="50.314359711483121" lon="6.345789022743702">
        <ele>462.41000000000003</ele>
        <time>2020-08-14T14:20:28Z</time>
      </trkpt>
      <trkpt lat="50.314443027600646" lon="6.345381829887629">
        <ele>461.47000000000003</ele>
        <time>2020-08-14T14:20:42Z</time>
      </trkpt>
      <trkpt lat="50.314545957371593" lon="6.345041776075959">
        <ele>461.44999999999999</ele>
        <time>2020-08-14T14:20:56Z</time>
      </trkpt>
      <trkpt lat="50.314697669818997" lon="6.344726616516709">
        <ele>461.44999999999999</ele>
        <time>2020-08-14T14:21:12Z</time>
      </trkpt>
      <trkpt lat="50.314838569611311" lon="6.344440458342433">
        <ele>461.44999999999999</ele>
        <time>2020-08-14T14:21:27Z</time>
      </trkpt>
      <trkpt lat="50.314933704212308" lon="6.344153126701713">
        <ele>461.48000000000002</ele>
        <time>2020-08-14T14:21:40Z</time>
      </trkpt>
      <trkpt lat="50.314985755831003" lon="6.343740150332451">
        <ele>460.68000000000001</ele>
        <time>2020-08-14T14:21:57Z</time>
      </trkpt>
      <trkpt lat="50.315054403617978" lon="6.343372687697411">
        <ele>460.69999999999999</ele>
        <time>2020-08-14T14:22:12Z</time>
      </trkpt>
      <trkpt lat="50.315131181851029" lon="6.343060713261366">
        <ele>459.98000000000002</ele>
        <time>2020-08-14T14:22:26Z</time>
      </trkpt>
      <trkpt lat="50.315187675878406" lon="6.342901708558202">
        <ele>460.01999999999998</ele>
        <time>2020-08-14T14:22:34Z</time>
      </trkpt>
      <trkpt lat="50.315276607871056" lon="6.342889554798603">
        <ele>460.00999999999999</ele>
        <time>2020-08-14T14:22:41Z</time>
      </trkpt>
      <trkpt lat="50.315464530140162" lon="6.342993574216962">
        <ele>460.02999999999997</ele>
        <time>2020-08-14T14:22:57Z</time>
      </trkpt>
      <trkpt lat="50.31564180739224" lon="6.343076974153519">
        <ele>460.00999999999999</ele>
        <time>2020-08-14T14:23:11Z</time>
      </trkpt>
      <trkpt lat="50.31583433970809" lon="6.343166744336486">
        <ele>459.99000000000001</ele>
        <time>2020-08-14T14:23:24Z</time>
      </trkpt>
      <trkpt lat="50.316032655537128" lon="6.343265399336815">
        <ele>462.31999999999999</ele>
        <time>2020-08-14T14:23:37Z</time>
      </trkpt>
      <trkpt lat="50.316205825656652" lon="6.343491962179542">
        <ele>463.47000000000003</ele>
        <time>2020-08-14T14:23:50Z</time>
      </trkpt>
      <trkpt lat="50.316245052963495" lon="6.343602854758501">
        <ele>461.60000000000002</ele>
        <time>2020-08-14T14:23:55Z</time>
      </trkpt>
      <trkpt lat="50.319596137851477" lon="6.356593379750848">
        <ele>530.45000000000005</ele>
        <time>2020-08-14T14:37:58Z</time>
      </trkpt>
      <trkpt lat="50.319629246369004" lon="6.356564378365874">
        <ele>533.99000000000001</ele>
        <time>2020-08-14T14:38:09Z</time>
      </trkpt>
      <trkpt lat="50.319634275510907" lon="6.356576280668378">
        <ele>537.17999999999995</ele>
        <time>2020-08-14T14:38:15Z</time>
      </trkpt>
      <trkpt lat="50.319626145064831" lon="6.356573598459363">
        <ele>540.41999999999996</ele>
        <time>2020-08-14T14:38:25Z</time>
      </trkpt>
      <trkpt lat="50.319623211398721" lon="6.35656907223165">
        <ele>543.47000000000003</ele>
        <time>2020-08-14T14:38:44Z</time>
      </trkpt>
      <trkpt lat="50.319624301046133" lon="6.356555996462703">
        <ele>545.07000000000005</ele>
        <time>2020-08-14T14:39:33Z</time>
      </trkpt>
      <trkpt lat="50.3196070343256" lon="6.35656806640327">
        <ele>545.00999999999999</ele>
        <time>2020-08-14T14:40:27Z</time>
      </trkpt>
      <trkpt lat="50.319605609402061" lon="6.35654903948307">
        <ele>544.92999999999995</ele>
        <time>2020-08-14T14:41:21Z</time>
      </trkpt>
      <trkpt lat="50.31960753723979" lon="6.356550799682736">
        <ele>545.66999999999996</ele>
        <time>2020-08-14T14:41:43Z</time>
      </trkpt>
      <trkpt lat="50.319589851424098" lon="6.35656320489943">
        <ele>574.89999999999998</ele>
        <time>2020-08-14T16:14:28Z</time>
      </trkpt>
    </trkseg>
  </trk>

</gpx>